NOAA Web Site Link Tides and Currents Home Page Transparent placeholder image

PORTS® Data Listing: 8632200 Kiptopeke, VA

CO-OPS RAW PORTS DATA

************************      PRELIMINARY DATA      ************************** 

     THIS RAW DATA HAS NOT BEEN SUBJECT TO THE NATIONAL OCEAN SERVICE'S        
     QUALITY CONTROL OR QUALITY ASSURANCE PROCEDURES AND DOES NOT MEET         
     THE CRITERIA AND STANDARDS OF OFFICIAL NATIONAL OCEAN SERVICE             
     DATA.  IT IS RELEASED FOR LIMITED PUBLIC USE AS PRELIMINARY DATA TO       
     BE USED ONLY WITH APPROPRIATE CAUTION.                                    

************************      PRELIMINARY DATA      ************************** 


       CD   -   Calendar date
       T    -   Time
       TZ   -   Timezone
       PW   -   Predicted water level (feet above MLLW)
       OW   -   Observed water level (feet above MLLW)
       WS   -   Wind speed (knots)
       WD   -   Wind direction (degrees true)
       WG   -   Wind gust (knots)
       AT   -   Air temperature (degrees farenheit)
       WT   -   Water temperature (degrees farenheit)
       AP   -   Air pressure (millibars)
       SA   -   Salinty (PSU - Practical Salinity Units)
       SG   -   Specific gravity
       RH   -   Relative humidity
       AG   -   Air gap (feet)
       VI   -   Visibility (nautical miles)

       ** NOTE **
       A variable that has its data fields filled with "9"s, indicates that
       data was not collected for that sample period.
       **********


STATION NAME: Kiptopeke (8632200)
****************************************************************************************************
    CD       T    TZ    PW     OW    WS   WD   WG    AT    WT    AP    SA    SG     RH    AG   VI
****************************************************************************************************
2019/07/16 02:12 EDT    0.30   0.69    8  159    9 -99.9  81.7 -999.9 -9.9 -9.999 -99.9 -99.99 -9.99
2019/07/16 02:18 EDT    0.26   0.66    7  159    9 -99.9  81.7 -999.9 -9.9 -9.999 -99.9 -99.99 -9.99
2019/07/16 02:24 EDT    0.23   0.64    7  160    8 -99.9  81.7 -999.9 -9.9 -9.999 -99.9 -99.99 -9.99
2019/07/16 02:30 EDT    0.20   0.54    8  166    9 -99.9  81.7 -999.9 -9.9 -9.999 -99.9 -99.99 -9.99
2019/07/16 02:36 EDT    0.18   0.57    8  173    9 -99.9  81.3 -999.9 -9.9 -9.999 -99.9 -99.99 -9.99
2019/07/16 02:42 EDT    0.15   0.53    8  170    9 -99.9  81.3 -999.9 -9.9 -9.999 -99.9 -99.99 -9.99
2019/07/16 02:48 EDT    0.13   0.52    8  168    9 -99.9  81.5 -999.9 -9.9 -9.999 -99.9 -99.99 -9.99
2019/07/16 02:54 EDT    0.12   0.52    8  169    9 -99.9  81.5 -999.9 -9.9 -9.999 -99.9 -99.99 -9.99
2019/07/16 03:00 EDT    0.10   0.50    7  169    9 -99.9  81.5 -999.9 -9.9 -9.999 -99.9 -99.99 -9.99
2019/07/16 03:06 EDT    0.09   0.49    7  167    9 -99.9  81.5 -999.9 -9.9 -9.999 -99.9 -99.99 -9.99
2019/07/16 03:12 EDT    0.09   0.48    6  168    8 -99.9  81.3 -999.9 -9.9 -9.999 -99.9 -99.99 -9.99
2019/07/16 03:18 EDT    0.09   0.50    7  176    8 -99.9  81.0 -999.9 -9.9 -9.999 -99.9 -99.99 -9.99
2019/07/16 03:24 EDT    0.09   0.50    8  175    9 -99.9  81.0 -999.9 -9.9 -9.999 -99.9 -99.99 -9.99
2019/07/16 03:30 EDT    0.09   0.50    6  166    8 -99.9  81.0 -999.9 -9.9 -9.999 -99.9 -99.99 -9.99
2019/07/16 03:36 EDT    0.10   0.52    7  155    8 -99.9  81.0 -999.9 -9.9 -9.999 -99.9 -99.99 -9.99
2019/07/16 03:42 EDT    0.11   0.52    6  157    8 -99.9  81.0 -999.9 -9.9 -9.999 -99.9 -99.99 -9.99
2019/07/16 03:48 EDT    0.12   0.53    6  164    8 -99.9  81.0 -999.9 -9.9 -9.999 -99.9 -99.99 -9.99
2019/07/16 03:54 EDT    0.14   0.56    6  160    7 -99.9  81.1 -999.9 -9.9 -9.999 -99.9 -99.99 -9.99
2019/07/16 04:00 EDT    0.16   0.57    6  167    7 -99.9  81.1 -999.9 -9.9 -9.999 -99.9 -99.99 -9.99
2019/07/16 04:06 EDT    0.19   0.60    6  171    7 -99.9  81.0 -999.9 -9.9 -9.999 -99.9 -99.99 -9.99
2019/07/16 04:12 EDT    0.22   0.60    7  177    8 -99.9  81.0 -999.9 -9.9 -9.999 -99.9 -99.99 -9.99
2019/07/16 04:18 EDT    0.25   0.59    7  172    8 -99.9  81.0 -999.9 -9.9 -9.999 -99.9 -99.99 -9.99
2019/07/16 04:24 EDT    0.28   0.67    6  174    7 -99.9  81.0 -999.9 -9.9 -9.999 -99.9 -99.99 -9.99
2019/07/16 04:30 EDT    0.32   0.70    6  166    8 -99.9  81.0 -999.9 -9.9 -9.999 -99.9 -99.99 -9.99
2019/07/16 04:36 EDT    0.36   0.75    5  154    7 -99.9  81.0 -999.9 -9.9 -9.999 -99.9 -99.99 -9.99
2019/07/16 04:42 EDT    0.41   0.76    5  162    6 -99.9  81.0 -999.9 -9.9 -9.999 -99.9 -99.99 -9.99
2019/07/16 04:48 EDT    0.46   0.79    6  162    7 -99.9  81.0 -999.9 -9.9 -9.999 -99.9 -99.99 -9.99
2019/07/16 04:54 EDT    0.51   0.82    5  142    7 -99.9  81.1 -999.9 -9.9 -9.999 -99.9 -99.99 -9.99
2019/07/16 05:00 EDT    0.56   0.85    5  151    6 -99.9  81.1 -999.9 -9.9 -9.999 -99.9 -99.99 -9.99
2019/07/16 05:06 EDT    0.62   0.92    6  170    7 -99.9  81.1 -999.9 -9.9 -9.999 -99.9 -99.99 -9.99
2019/07/16 05:12 EDT    0.67   0.95    6  172    7 -99.9  81.1 -999.9 -9.9 -9.999 -99.9 -99.99 -9.99
2019/07/16 05:18 EDT    0.73   1.01    7  171    8 -99.9  81.1 -999.9 -9.9 -9.999 -99.9 -99.99 -9.99
2019/07/16 05:24 EDT    0.79   1.08    5  154    8 -99.9  81.1 -999.9 -9.9 -9.999 -99.9 -99.99 -9.99
2019/07/16 05:30 EDT    0.86   1.17    4  149    5 -99.9  81.1 -999.9 -9.9 -9.999 -99.9 -99.99 -9.99
2019/07/16 05:36 EDT    0.92   1.19    5  131    5 -99.9  81.1 -999.9 -9.9 -9.999 -99.9 -99.99 -9.99
2019/07/16 05:42 EDT    0.99   1.27    4  131    5 -99.9  81.1 -999.9 -9.9 -9.999 -99.9 -99.99 -9.99
2019/07/16 05:48 EDT    1.05   1.35    4  142    5 -99.9  81.1 -999.9 -9.9 -9.999 -99.9 -99.99 -9.99
2019/07/16 05:54 EDT    1.12   1.43    4  154    5 -99.9  81.1 -999.9 -9.9 -9.999 -99.9 -99.99 -9.99
2019/07/16 06:00 EDT    1.18   1.46    5  147    5 -99.9  81.1 -999.9 -9.9 -9.999 -99.9 -99.99 -9.99
2019/07/16 06:06 EDT    1.25   1.55    5  148    5 -99.9  81.3 -999.9 -9.9 -9.999 -99.9 -99.99 -9.99
2019/07/16 06:12 EDT    1.32   1.61    4  144    5 -99.9  81.5 -999.9 -9.9 -9.999 -99.9 -99.99 -9.99
2019/07/16 06:18 EDT    1.38   1.71    4  144    5 -99.9  81.3 -999.9 -9.9 -9.999 -99.9 -99.99 -9.99
2019/07/16 06:24 EDT    1.45   1.80    4  143    5 -99.9  81.3 -999.9 -9.9 -9.999 -99.9 -99.99 -9.99
2019/07/16 06:30 EDT    1.51   1.86    4  135    5 -99.9  81.3 -999.9 -9.9 -9.999 -99.9 -99.99 -9.99
2019/07/16 06:36 EDT    1.58   1.93    4  137    5 -99.9  81.3 -999.9 -9.9 -9.999 -99.9 -99.99 -9.99
2019/07/16 06:42 EDT    1.64   2.00    5  144    6 -99.9  81.3 -999.9 -9.9 -9.999 -99.9 -99.99 -9.99
2019/07/16 06:48 EDT    1.70   2.06    5  145    6 -99.9  81.3 -999.9 -9.9 -9.999 -99.9 -99.99 -9.99
2019/07/16 06:54 EDT    1.76   2.13    4  151    5 -99.9  81.3 -999.9 -9.9 -9.999 -99.9 -99.99 -9.99
2019/07/16 07:00 EDT    1.81   2.20    6  169    7 -99.9  81.5 -999.9 -9.9 -9.999 -99.9 -99.99 -9.99
2019/07/16 07:06 EDT    1.87   2.26    7  174    8 -99.9  81.5 -999.9 -9.9 -9.999 -99.9 -99.99 -9.99
2019/07/16 07:12 EDT    1.92   2.33    7  176    8 -99.9  81.3 -999.9 -9.9 -9.999 -99.9 -99.99 -9.99
2019/07/16 07:18 EDT    1.97   2.38    8  176    9 -99.9  81.3 -999.9 -9.9 -9.999 -99.9 -99.99 -9.99
2019/07/16 07:24 EDT    2.02   2.44    8  178    9 -99.9  81.5 -999.9 -9.9 -9.999 -99.9 -99.99 -9.99
2019/07/16 07:30 EDT    2.07   2.49    8  178    9 -99.9  81.5 -999.9 -9.9 -9.999 -99.9 -99.99 -9.99
2019/07/16 07:36 EDT    2.11   2.53    9  177   10 -99.9  81.5 -999.9 -9.9 -9.999 -99.9 -99.99 -9.99
2019/07/16 07:42 EDT    2.15   2.55    9  179   10 -99.9  81.5 -999.9 -9.9 -9.999 -99.9 -99.99 -9.99
2019/07/16 07:48 EDT    2.19   2.60    9  175   10 -99.9  81.5 -999.9 -9.9 -9.999 -99.9 -99.99 -9.99
2019/07/16 07:54 EDT    2.23   2.65    9  180   10 -99.9  81.5 -999.9 -9.9 -9.999 -99.9 -99.99 -9.99
2019/07/16 08:00 EDT    2.26   2.68    9  184   10 -99.9  81.5 -999.9 -9.9 -9.999 -99.9 -99.99 -9.99
2019/07/16 08:06 EDT    2.29   2.73    9  187   10 -99.9  81.7 -999.9 -9.9 -9.999 -99.9 -99.99 -9.99
2019/07/16 08:12 EDT    2.32   2.74    9  185   11 -99.9  81.7 -999.9 -9.9 -9.999 -99.9 -99.99 -9.99
2019/07/16 08:18 EDT    2.35   2.75   10  184   10 -99.9  81.7 -999.9 -9.9 -9.999 -99.9 -99.99 -9.99
2019/07/16 08:24 EDT    2.37   2.78    9  183   10 -99.9  81.7 -999.9 -9.9 -9.999 -99.9 -99.99 -9.99
2019/07/16 08:30 EDT    2.39   2.79    9  183   10 -99.9  81.7 -999.9 -9.9 -9.999 -99.9 -99.99 -9.99
2019/07/16 08:36 EDT    2.41   2.82    9  184   10 -99.9  81.7 -999.9 -9.9 -9.999 -99.9 -99.99 -9.99
2019/07/16 08:42 EDT    2.42   2.84    9  180   10 -99.9  81.9 -999.9 -9.9 -9.999 -99.9 -99.99 -9.99
2019/07/16 08:48 EDT    2.44   2.87    8  178   10 -99.9  81.9 -999.9 -9.9 -9.999 -99.9 -99.99 -9.99
2019/07/16 08:54 EDT    2.44   2.86    9  171   10 -99.9  81.9 -999.9 -9.9 -9.999 -99.9 -99.99 -9.99
2019/07/16 09:00 EDT    2.45   2.85    8  163   10 -99.9  81.9 -999.9 -9.9 -9.999 -99.9 -99.99 -9.99
2019/07/16 09:06 EDT    2.45   2.84    8  165    9 -99.9  82.0 -999.9 -9.9 -9.999 -99.9 -99.99 -9.99
2019/07/16 09:12 EDT    2.46   2.85    8  167    9 -99.9  82.0 -999.9 -9.9 -9.999 -99.9 -99.99 -9.99
2019/07/16 09:18 EDT    2.45   2.85    8  170    9 -99.9  82.0 -999.9 -9.9 -9.999 -99.9 -99.99 -9.99
2019/07/16 09:24 EDT    2.45   2.84    8  174    9 -99.9  82.2 -999.9 -9.9 -9.999 -99.9 -99.99 -9.99
2019/07/16 09:30 EDT    2.44   2.83    8  175    9 -99.9  82.2 -999.9 -9.9 -9.999 -99.9 -99.99 -9.99
2019/07/16 09:36 EDT    2.43   2.82    7  178    8 -99.9  82.2 -999.9 -9.9 -9.999 -99.9 -99.99 -9.99
2019/07/16 09:42 EDT    2.41   2.81    7  173    8 -99.9  82.2 -999.9 -9.9 -9.999 -99.9 -99.99 -9.99
2019/07/16 09:48 EDT    2.40   2.79    8  177    9 -99.9  82.2 -999.9 -9.9 -9.999 -99.9 -99.99 -9.99
2019/07/16 09:54 EDT    2.38   2.78    7  182    9 -99.9  82.0 -999.9 -9.9 -9.999 -99.9 -99.99 -9.99
2019/07/16 10:00 EDT    2.35   2.74    8  185    9 -99.9  82.2 -999.9 -9.9 -9.999 -99.9 -99.99 -9.99
2019/07/16 10:06 EDT    2.33   2.72    7  187    8 -99.9  82.4 -999.9 -9.9 -9.999 -99.9 -99.99 -9.99
2019/07/16 10:12 EDT    2.30   2.69    7  189    8 -99.9  82.4 -999.9 -9.9 -9.999 -99.9 -99.99 -9.99
2019/07/16 10:18 EDT    2.27   2.66    7  186    8 -99.9  82.4 -999.9 -9.9 -9.999 -99.9 -99.99 -9.99
2019/07/16 10:24 EDT    2.23   2.64    7  189    8 -99.9  82.2 -999.9 -9.9 -9.999 -99.9 -99.99 -9.99
2019/07/16 10:30 EDT    2.19   2.61    7  189    8 -99.9  82.0 -999.9 -9.9 -9.999 -99.9 -99.99 -9.99
2019/07/16 10:36 EDT    2.15   2.56    7  186    8 -99.9  82.0 -999.9 -9.9 -9.999 -99.9 -99.99 -9.99
2019/07/16 10:42 EDT    2.11   2.53    7  184    8 -99.9  82.0 -999.9 -9.9 -9.999 -99.9 -99.99 -9.99
2019/07/16 10:48 EDT    2.06   2.47    7  187    8 -99.9  82.0 -999.9 -9.9 -9.999 -99.9 -99.99 -9.99
2019/07/16 10:54 EDT    2.02   2.44    6  182    7 -99.9  81.9 -999.9 -9.9 -9.999 -99.9 -99.99 -9.99
2019/07/16 11:00 EDT    1.96   2.39    6  185    7 -99.9  81.9 -999.9 -9.9 -9.999 -99.9 -99.99 -9.99
2019/07/16 11:06 EDT    1.91   2.36    6  186    6 -99.9  81.7 -999.9 -9.9 -9.999 -99.9 -99.99 -9.99
2019/07/16 11:12 EDT    1.86   2.32    6  185    6 -99.9  81.7 -999.9 -9.9 -9.999 -99.9 -99.99 -9.99
2019/07/16 11:18 EDT    1.80   2.24    5  180    6 -99.9  81.7 -999.9 -9.9 -9.999 -99.9 -99.99 -9.99
2019/07/16 11:24 EDT    1.74   2.18    5  180    6 -99.9  81.7 -999.9 -9.9 -9.999 -99.9 -99.99 -9.99
2019/07/16 11:30 EDT    1.68   2.13    5  192    6 -99.9  81.7 -999.9 -9.9 -9.999 -99.9 -99.99 -9.99
2019/07/16 11:36 EDT    1.62   2.06    5  188    6 -99.9  81.7 -999.9 -9.9 -9.999 -99.9 -99.99 -9.99
2019/07/16 11:42 EDT    1.56   1.99    5  190    6 -99.9  81.7 -999.9 -9.9 -9.999 -99.9 -99.99 -9.99
2019/07/16 11:48 EDT    1.50   1.90    6  188    6 -99.9  81.7 -999.9 -9.9 -9.999 -99.9 -99.99 -9.99
2019/07/16 11:54 EDT    1.43   1.84 -999 -999 -999 -99.9 -99.9 -999.9 -9.9 -9.999 -99.9 -99.99 -9.99
2019/07/16 12:00 EDT    1.37   1.74    6  187    6 -99.9  81.7 -999.9 -9.9 -9.999 -99.9 -99.99 -9.99
2019/07/16 12:06 EDT    1.30   1.68    6  181    7 -99.9  81.7 -999.9 -9.9 -9.999 -99.9 -99.99 -9.99
2019/07/16 12:12 EDT    1.24   1.61    6  182    7 -99.9  81.7 -999.9 -9.9 -9.999 -99.9 -99.99 -9.99
2019/07/16 12:18 EDT    1.18   1.55    5  190    7 -99.9  81.7 -999.9 -9.9 -9.999 -99.9 -99.99 -9.99
2019/07/16 12:24 EDT    1.11   1.47    6  191    7 -99.9  81.7 -999.9 -9.9 -9.999 -99.9 -99.99 -9.99
2019/07/16 12:30 EDT    1.05   1.42    5  190    7 -99.9  81.9 -999.9 -9.9 -9.999 -99.9 -99.99 -9.99
2019/07/16 12:36 EDT    0.99   1.33    6  187    6 -99.9  81.9 -999.9 -9.9 -9.999 -99.9 -99.99 -9.99
2019/07/16 12:42 EDT    0.93   1.27    6  182    7 -99.9  81.9 -999.9 -9.9 -9.999 -99.9 -99.99 -9.99
2019/07/16 12:48 EDT    0.87   1.22    4  198    7 -99.9  81.7 -999.9 -9.9 -9.999 -99.9 -99.99 -9.99
2019/07/16 12:54 EDT    0.81   1.14    5  204    6 -99.9  81.7 -999.9 -9.9 -9.999 -99.9 -99.99 -9.99
2019/07/16 13:00 EDT    0.75   1.09    5  199    6 -99.9  81.7 -999.9 -9.9 -9.999 -99.9 -99.99 -9.99
2019/07/16 13:06 EDT    0.69   1.04    4  193    7 -99.9  81.7 -999.9 -9.9 -9.999 -99.9 -99.99 -9.99
2019/07/16 13:12 EDT    0.64   0.97    5  202    6 -99.9  81.9 -999.9 -9.9 -9.999 -99.9 -99.99 -9.99
2019/07/16 13:18 EDT    0.59   0.92    5  179    6 -99.9  81.9 -999.9 -9.9 -9.999 -99.9 -99.99 -9.99
2019/07/16 13:24 EDT    0.54   0.86    5  176    6 -99.9  81.9 -999.9 -9.9 -9.999 -99.9 -99.99 -9.99
2019/07/16 13:30 EDT    0.49   0.82    4  178    5 -99.9  81.9 -999.9 -9.9 -9.999 -99.9 -99.99 -9.99
2019/07/16 13:36 EDT    0.45   0.76    5  182    6 -99.9  81.9 -999.9 -9.9 -9.999 -99.9 -99.99 -9.99
2019/07/16 13:42 EDT    0.40   0.74    4  179    5 -99.9  81.9 -999.9 -9.9 -9.999 -99.9 -99.99 -9.99
2019/07/16 13:48 EDT    0.36   0.69    3  177    4 -99.9  82.0 -999.9 -9.9 -9.999 -99.9 -99.99 -9.99
2019/07/16 13:54 EDT    0.33   0.65    3  192    4 -99.9  82.0 -999.9 -9.9 -9.999 -99.9 -99.99 -9.99
2019/07/16 14:00 EDT    0.29   0.62    4  191    5 -99.9  82.2 -999.9 -9.9 -9.999 -99.9 -99.99 -9.99
2019/07/16 14:06 EDT    0.26   0.60    4  195    5 -99.9  82.6 -999.9 -9.9 -9.999 -99.9 -99.99 -9.99
2019/07/16 14:12 EDT    0.23   0.55    4  194    5 -99.9  82.8 -999.9 -9.9 -9.999 -99.9 -99.99 -9.99
2019/07/16 14:18 EDT    0.20   0.53    6  179    6 -99.9  83.1 -999.9 -9.9 -9.999 -99.9 -99.99 -9.99
2019/07/16 14:24 EDT    0.18   0.51    7  178    8 -99.9  83.3 -999.9 -9.9 -9.999 -99.9 -99.99 -9.99
2019/07/16 14:30 EDT    0.16   0.47    6  170    7 -99.9  83.7 -999.9 -9.9 -9.999 -99.9 -99.99 -9.99
2019/07/16 14:36 EDT    0.14   0.47    6  174    7 -99.9  84.0 -999.9 -9.9 -9.999 -99.9 -99.99 -9.99
2019/07/16 14:42 EDT    0.13   0.46    7  172    8 -99.9  84.2 -999.9 -9.9 -9.999 -99.9 -99.99 -9.99
2019/07/16 14:48 EDT    0.12   0.48    9  172   10 -99.9  84.4 -999.9 -9.9 -9.999 -99.9 -99.99 -9.99
2019/07/16 14:54 EDT    0.11   0.50   11  192   11 -99.9  84.6 -999.9 -9.9 -9.999 -99.9 -99.99 -9.99
2019/07/16 15:00 EDT    0.10   0.50   13  206   16 -99.9  84.7 -999.9 -9.9 -9.999 -99.9 -99.99 -9.99
2019/07/16 15:06 EDT    0.10   0.54   13  232   15 -99.9  84.6 -999.9 -9.9 -9.999 -99.9 -99.99 -9.99
2019/07/16 15:12 EDT    0.10   0.57   13  249   15 -99.9  84.4 -999.9 -9.9 -9.999 -99.9 -99.99 -9.99
2019/07/16 15:18 EDT    0.10   0.52   11  234   15 -99.9  84.2 -999.9 -9.9 -9.999 -99.9 -99.99 -9.99
2019/07/16 15:24 EDT    0.11   0.42   10  223   12 -99.9  84.0 -999.9 -9.9 -9.999 -99.9 -99.99 -9.99
2019/07/16 15:30 EDT    0.12   0.38    8  220   10 -99.9  83.5 -999.9 -9.9 -9.999 -99.9 -99.99 -9.99
2019/07/16 15:36 EDT    0.14   0.34   10  225   11 -99.9  83.5 -999.9 -9.9 -9.999 -99.9 -99.99 -9.99
2019/07/16 15:42 EDT    0.15   0.37    8  205   10 -99.9  83.3 -999.9 -9.9 -9.999 -99.9 -99.99 -9.99
2019/07/16 15:48 EDT    0.17   0.38    6  190    7 -99.9  83.3 -999.9 -9.9 -9.999 -99.9 -99.99 -9.99
2019/07/16 15:54 EDT    0.20   0.46    6  183    7 -99.9  83.1 -999.9 -9.9 -9.999 -99.9 -99.99 -9.99
2019/07/16 16:00 EDT    0.23   0.49    6  178    8 -99.9  83.3 -999.9 -9.9 -9.999 -99.9 -99.99 -9.99
2019/07/16 16:06 EDT    0.26   0.56    7  182    8 -99.9  83.3 -999.9 -9.9 -9.999 -99.9 -99.99 -9.99
2019/07/16 16:12 EDT    0.29   0.58    8  186   10 -99.9  83.5 -999.9 -9.9 -9.999 -99.9 -99.99 -9.99
2019/07/16 16:18 EDT    0.33   0.61    8  191    9 -99.9  83.7 -999.9 -9.9 -9.999 -99.9 -99.99 -9.99
2019/07/16 16:24 EDT    0.37   0.60    6  189    8 -99.9  83.5 -999.9 -9.9 -9.999 -99.9 -99.99 -9.99
2019/07/16 16:30 EDT    0.41   0.69    7  193    7 -99.9  83.3 -999.9 -9.9 -9.999 -99.9 -99.99 -9.99
2019/07/16 16:36 EDT    0.46   0.75   13  190   17 -99.9  83.3 -999.9 -9.9 -9.999 -99.9 -99.99 -9.99
2019/07/16 16:42 EDT    0.51   0.77   14  193   16 -99.9  83.3 -999.9 -9.9 -9.999 -99.9 -99.99 -9.99
2019/07/16 16:48 EDT    0.57   0.82   11  183   14 -99.9  83.3 -999.9 -9.9 -9.999 -99.9 -99.99 -9.99
2019/07/16 16:54 EDT    0.62   0.85   12  191   13 -99.9  83.3 -999.9 -9.9 -9.999 -99.9 -99.99 -9.99
2019/07/16 17:00 EDT    0.68   0.91   10  191   13 -99.9  83.1 -999.9 -9.9 -9.999 -99.9 -99.99 -9.99
2019/07/16 17:06 EDT    0.74   0.96   11  190   13 -99.9  82.9 -999.9 -9.9 -9.999 -99.9 -99.99 -9.99
2019/07/16 17:12 EDT    0.81   0.98   10  186   11 -99.9  82.9 -999.9 -9.9 -9.999 -99.9 -99.99 -9.99
2019/07/16 17:18 EDT    0.88   1.02   11  188   13 -99.9  82.9 -999.9 -9.9 -9.999 -99.9 -99.99 -9.99
2019/07/16 17:24 EDT    0.95   1.09   13  194   15 -99.9  82.9 -999.9 -9.9 -9.999 -99.9 -99.99 -9.99
2019/07/16 17:30 EDT    1.02   1.18   14  204   17 -99.9  82.8 -999.9 -9.9 -9.999 -99.9 -99.99 -9.99
2019/07/16 17:36 EDT    1.09   1.29   15  205   17 -99.9  82.6 -999.9 -9.9 -9.999 -99.9 -99.99 -9.99
2019/07/16 17:42 EDT    1.16   1.36   15  205   18 -99.9  84.0 -999.9 -9.9 -9.999 -99.9 -99.99 -9.99
2019/07/16 17:48 EDT    1.24   1.40   15  212   17 -99.9  82.8 -999.9 -9.9 -9.999 -99.9 -99.99 -9.99
2019/07/16 17:54 EDT    1.32   1.46   14  213   16 -99.9  82.0 -999.9 -9.9 -9.999 -99.9 -99.99 -9.99
2019/07/16 18:00 EDT    1.39   1.53   13  223   16 -99.9  81.9 -999.9 -9.9 -9.999 -99.9 -99.99 -9.99
2019/07/16 18:06 EDT    1.47   1.65   13  226   15 -99.9  82.0 -999.9 -9.9 -9.999 -99.9 -99.99 -9.99
2019/07/16 18:12 EDT    1.55   1.76   15  225   19 -99.9  82.2 -999.9 -9.9 -9.999 -99.9 -99.99 -9.99
2019/07/16 18:18 EDT    1.63   1.87   15  219   17 -99.9  82.2 -999.9 -9.9 -9.999 -99.9 -99.99 -9.99
2019/07/16 18:24 EDT    1.70   1.91   12  221   17 -99.9  82.4 -999.9 -9.9 -9.999 -99.9 -99.99 -9.99
2019/07/16 18:30 EDT    1.78   1.92   11  214   14 -99.9  82.9 -999.9 -9.9 -9.999 -99.9 -99.99 -9.99
2019/07/16 18:36 EDT    1.86   1.99    9  195   11 -99.9  83.1 -999.9 -9.9 -9.999 -99.9 -99.99 -9.99
2019/07/16 18:42 EDT    1.93   2.04    8  206   10 -99.9  83.1 -999.9 -9.9 -9.999 -99.9 -99.99 -9.99
2019/07/16 18:48 EDT    2.01   2.11    7  203   10 -99.9  83.3 -999.9 -9.9 -9.999 -99.9 -99.99 -9.99
2019/07/16 18:54 EDT    2.08   2.23    7  210    8 -99.9  83.7 -999.9 -9.9 -9.999 -99.9 -99.99 -9.99
2019/07/16 19:00 EDT    2.15   2.26    9  200   11 -99.9  83.5 -999.9 -9.9 -9.999 -99.9 -99.99 -9.99
2019/07/16 19:06 EDT    2.22   2.34    8  201   10 -99.9  83.5 -999.9 -9.9 -9.999 -99.9 -99.99 -9.99
2019/07/16 19:12 EDT    2.29   2.45    6  204    9 -99.9  83.8 -999.9 -9.9 -9.999 -99.9 -99.99 -9.99
2019/07/16 19:18 EDT    2.35   2.56    9  206   10 -99.9  84.2 -999.9 -9.9 -9.999 -99.9 -99.99 -9.99
2019/07/16 19:24 EDT    2.42   2.65    5  217    9 -99.9  83.1 -999.9 -9.9 -9.999 -99.9 -99.99 -9.99
2019/07/16 19:30 EDT    2.48   2.71    9  224   11 -99.9  82.8 -999.9 -9.9 -9.999 -99.9 -99.99 -9.99
2019/07/16 19:36 EDT    2.54   2.76    7  227   11 -99.9  82.8 -999.9 -9.9 -9.999 -99.9 -99.99 -9.99
2019/07/16 19:42 EDT    2.59   2.83    8  231   11 -99.9  82.6 -999.9 -9.9 -9.999 -99.9 -99.99 -9.99
2019/07/16 19:48 EDT    2.64   2.89    9  235   11 -99.9  83.1 -999.9 -9.9 -9.999 -99.9 -99.99 -9.99
2019/07/16 19:54 EDT    2.69   2.97    9  239   11 -99.9  83.5 -999.9 -9.9 -9.999 -99.9 -99.99 -9.99
2019/07/16 20:00 EDT    2.74   2.99    8  243   12 -99.9  83.7 -999.9 -9.9 -9.999 -99.9 -99.99 -9.99
2019/07/16 20:06 EDT    2.79   3.04    9  254   11 -99.9  83.8 -999.9 -9.9 -9.999 -99.9 -99.99 -9.99
2019/07/16 20:12 EDT    2.83   3.10    9  254   10 -99.9  83.8 -999.9 -9.9 -9.999 -99.9 -99.99 -9.99
2019/07/16 20:18 EDT    2.86   3.13    8  238   11 -99.9  83.8 -999.9 -9.9 -9.999 -99.9 -99.99 -9.99
2019/07/16 20:24 EDT    2.90   3.17    9  242   11 -99.9  84.0 -999.9 -9.9 -9.999 -99.9 -99.99 -9.99
2019/07/16 20:30 EDT    2.93   3.18   10  242   12 -99.9  84.0 -999.9 -9.9 -9.999 -99.9 -99.99 -9.99
2019/07/16 20:36 EDT    2.96   3.21    9  237   11 -99.9  84.0 -999.9 -9.9 -9.999 -99.9 -99.99 -9.99
2019/07/16 20:42 EDT    2.99   3.28    9  238   12 -99.9  84.0 -999.9 -9.9 -9.999 -99.9 -99.99 -9.99
2019/07/16 20:48 EDT    3.01   3.28    8  244   11 -99.9  84.0 -999.9 -9.9 -9.999 -99.9 -99.99 -9.99
2019/07/16 20:54 EDT    3.03   3.33    9  240   10 -99.9  84.0 -999.9 -9.9 -9.999 -99.9 -99.99 -9.99
2019/07/16 21:00 EDT    3.04   3.35    9  251   10 -99.9  84.0 -999.9 -9.9 -9.999 -99.9 -99.99 -9.99
2019/07/16 21:06 EDT    3.06   3.37    8  254   10 -99.9  84.0 -999.9 -9.9 -9.999 -99.9 -99.99 -9.99
2019/07/16 21:12 EDT    3.07   3.38    8  255    9 -99.9  84.0 -999.9 -9.9 -9.999 -99.9 -99.99 -9.99
2019/07/16 21:18 EDT    3.07   3.38    7  251    9 -99.9  84.2 -999.9 -9.9 -9.999 -99.9 -99.99 -9.99
2019/07/16 21:24 EDT    3.08   3.38    7  260    8 -99.9  84.2 -999.9 -9.9 -9.999 -99.9 -99.99 -9.99
2019/07/16 21:30 EDT    3.08   3.39    7  254   10 -99.9  84.2 -999.9 -9.9 -9.999 -99.9 -99.99 -9.99
2019/07/16 21:36 EDT    3.08   3.38    6  247    9 -99.9  84.2 -999.9 -9.9 -9.999 -99.9 -99.99 -9.99
2019/07/16 21:42 EDT    3.07   3.38    7  255    8 -99.9  84.0 -999.9 -9.9 -9.999 -99.9 -99.99 -9.99
2019/07/16 21:48 EDT    3.06   3.34    6  247    8 -99.9  84.0 -999.9 -9.9 -9.999 -99.9 -99.99 -9.99
2019/07/16 21:54 EDT    3.05   3.33    6  234    7 -99.9  83.8 -999.9 -9.9 -9.999 -99.9 -99.99 -9.99
2019/07/16 22:00 EDT    3.03   3.32    6  231    7 -99.9  83.8 -999.9 -9.9 -9.999 -99.9 -99.99 -9.99
2019/07/16 22:06 EDT    3.01   3.31    7  219    8 -99.9  83.8 -999.9 -9.9 -9.999 -99.9 -99.99 -9.99
2019/07/16 22:12 EDT    2.99   3.28    7  206    8 -99.9  83.8 -999.9 -9.9 -9.999 -99.9 -99.99 -9.99
2019/07/16 22:18 EDT    2.97   3.26    8  207    9 -99.9  83.7 -999.9 -9.9 -9.999 -99.9 -99.99 -9.99
2019/07/16 22:24 EDT    2.94   3.25    8  209   10 -99.9  83.3 -999.9 -9.9 -9.999 -99.9 -99.99 -9.99
2019/07/16 22:30 EDT    2.91   3.23    8  209   10 -99.9  83.1 -999.9 -9.9 -9.999 -99.9 -99.99 -9.99
2019/07/16 22:36 EDT    2.87   3.22    9  214   10 -99.9  82.9 -999.9 -9.9 -9.999 -99.9 -99.99 -9.99
2019/07/16 22:42 EDT    2.83   3.20    8  206   10 -99.9  82.6 -999.9 -9.9 -9.999 -99.9 -99.99 -9.99
2019/07/16 22:48 EDT    2.79   3.13    8  197   10 -99.9  82.9 -999.9 -9.9 -9.999 -99.9 -99.99 -9.99
2019/07/16 22:54 EDT    2.75   3.11    9  186   10 -99.9  82.9 -999.9 -9.9 -9.999 -99.9 -99.99 -9.99
2019/07/16 23:00 EDT    2.70   3.06    8  190   10 -99.9  82.8 -999.9 -9.9 -9.999 -99.9 -99.99 -9.99
2019/07/16 23:06 EDT    2.65   3.02    8  186    9 -99.9  82.8 -999.9 -9.9 -9.999 -99.9 -99.99 -9.99
2019/07/16 23:12 EDT    2.60   2.97    8  188    9 -99.9  82.9 -999.9 -9.9 -9.999 -99.9 -99.99 -9.99
2019/07/16 23:18 EDT    2.54   2.91    6  191    8 -99.9  82.9 -999.9 -9.9 -9.999 -99.9 -99.99 -9.99
2019/07/16 23:24 EDT    2.49   2.87    5  196    7 -99.9  82.9 -999.9 -9.9 -9.999 -99.9 -99.99 -9.99
2019/07/16 23:30 EDT    2.43   2.82    6  193    6 -99.9  83.1 -999.9 -9.9 -9.999 -99.9 -99.99 -9.99
2019/07/16 23:36 EDT    2.36   2.77    7  194    7 -99.9  83.1 -999.9 -9.9 -9.999 -99.9 -99.99 -9.99
2019/07/16 23:42 EDT    2.30   2.69    7  195    8 -99.9  82.9 -999.9 -9.9 -9.999 -99.9 -99.99 -9.99
2019/07/16 23:48 EDT    2.23   2.62    7  193    8 -99.9  82.9 -999.9 -9.9 -9.999 -99.9 -99.99 -9.99
2019/07/16 23:54 EDT    2.16   2.56    8  189    9 -99.9  82.9 -999.9 -9.9 -9.999 -99.9 -99.99 -9.99
2019/07/17 00:00 EDT    2.10   2.52    8  189    9 -99.9  82.8 -999.9 -9.9 -9.999 -99.9 -99.99 -9.99
2019/07/17 00:06 EDT    2.02   2.44    7  185    9 -99.9  82.8 -999.9 -9.9 -9.999 -99.9 -99.99 -9.99
2019/07/17 00:12 EDT    1.95   2.34    8  185    9 -99.9  82.8 -999.9 -9.9 -9.999 -99.9 -99.99 -9.99
2019/07/17 00:18 EDT    1.88   2.28    8  187    9 -99.9  82.8 -999.9 -9.9 -9.999 -99.9 -99.99 -9.99
2019/07/17 00:24 EDT    1.81   2.18    8  185   10 -99.9  82.6 -999.9 -9.9 -9.999 -99.9 -99.99 -9.99
2019/07/17 00:30 EDT    1.73   2.10    9  184   10 -99.9  82.6 -999.9 -9.9 -9.999 -99.9 -99.99 -9.99
2019/07/17 00:36 EDT    1.66   2.00    9  183   11 -99.9  82.6 -999.9 -9.9 -9.999 -99.9 -99.99 -9.99
2019/07/17 00:42 EDT    1.58   1.94    9  184   10 -99.9  82.6 -999.9 -9.9 -9.999 -99.9 -99.99 -9.99
2019/07/17 00:48 EDT    1.51   1.89    9  186   11 -99.9  82.6 -999.9 -9.9 -9.999 -99.9 -99.99 -9.99
2019/07/17 00:54 EDT    1.44   1.82    8  175    9 -99.9  82.6 -999.9 -9.9 -9.999 -99.9 -99.99 -9.99
2019/07/17 01:00 EDT    1.36   1.75    7  185    8 -99.9  82.4 -999.9 -9.9 -9.999 -99.9 -99.99 -9.99
2019/07/17 01:06 EDT    1.29   1.66    6  192    8 -99.9  82.6 -999.9 -9.9 -9.999 -99.9 -99.99 -9.99
2019/07/17 01:12 EDT    1.22   1.58    9  189   11 -99.9  82.4 -999.9 -9.9 -9.999 -99.9 -99.99 -9.99
2019/07/17 01:18 EDT    1.15   1.52    9  185   11 -99.9  82.4 -999.9 -9.9 -9.999 -99.9 -99.99 -9.99
2019/07/17 01:24 EDT    1.08   1.42    9  183   11 -99.9  82.4 -999.9 -9.9 -9.999 -99.9 -99.99 -9.99
2019/07/17 01:30 EDT    1.02   1.36   10  191   11 -99.9  82.4 -999.9 -9.9 -9.999 -99.9 -99.99 -9.99
2019/07/17 01:36 EDT    0.95   1.31   11  192   12 -99.9  82.4 -999.9 -9.9 -9.999 -99.9 -99.99 -9.99
2019/07/17 01:42 EDT    0.89   1.24    9  195   12 -99.9  82.4 -999.9 -9.9 -9.999 -99.9 -99.99 -9.99
2019/07/17 01:48 EDT    0.82   1.21   10  197   12 -99.9  82.4 -999.9 -9.9 -9.999 -99.9 -99.99 -9.99
2019/07/17 01:54 EDT    0.76   1.13   10  190   11 -99.9  82.6 -999.9 -9.9 -9.999 -99.9 -99.99 -9.99
2019/07/17 02:00 EDT    0.71   1.10    9  190   10 -99.9  82.6 -999.9 -9.9 -9.999 -99.9 -99.99 -9.99
2019/07/17 02:06 EDT    0.65   1.03    8  194   10 -99.9  82.6 -999.9 -9.9 -9.999 -99.9 -99.99 -9.99
2019/07/17 02:12 EDT    0.60   0.96    9  197   10 -99.9  82.6 -999.9 -9.9 -9.999 -99.9 -99.99 -9.99
2019/07/17 02:18 EDT    0.55   0.92    7  197   10 -99.9  82.4 -999.9 -9.9 -9.999 -99.9 -99.99 -9.99
2019/07/17 02:24 EDT    0.50   0.86    8  204    9 -99.9  82.4 -999.9 -9.9 -9.999 -99.9 -99.99 -9.99
2019/07/17 02:30 EDT    0.45   0.81    7  201    9 -99.9  82.4 -999.9 -9.9 -9.999 -99.9 -99.99 -9.99
2019/07/17 02:36 EDT    0.41   0.76    6  202    8 -99.9  82.2 -999.9 -9.9 -9.999 -99.9 -99.99 -9.99
2019/07/17 02:42 EDT    0.37   0.70    6  202    7 -99.9  82.2 -999.9 -9.9 -9.999 -99.9 -99.99 -9.99
2019/07/17 02:48 EDT    0.33   0.64    4  206    6 -99.9  82.0 -999.9 -9.9 -9.999 -99.9 -99.99 -9.99
2019/07/17 02:54 EDT    0.30   0.61    5  203    5 -99.9  82.0 -999.9 -9.9 -9.999 -99.9 -99.99 -9.99
2019/07/17 03:00 EDT    0.26   0.61    5  215    6 -99.9  82.0 -999.9 -9.9 -9.999 -99.9 -99.99 -9.99
2019/07/17 03:06 EDT    0.23   0.56    4  204    5 -99.9  82.2 -999.9 -9.9 -9.999 -99.9 -99.99 -9.99
2019/07/17 03:12 EDT    0.21   0.54    5  208    7 -99.9  82.0 -999.9 -9.9 -9.999 -99.9 -99.99 -9.99
2019/07/17 03:18 EDT    0.18   0.53    5  212    7 -99.9  82.2 -999.9 -9.9 -9.999 -99.9 -99.99 -9.99
2019/07/17 03:24 EDT    0.16   0.49    6  228   10 -99.9  82.2 -999.9 -9.9 -9.999 -99.9 -99.99 -9.99
2019/07/17 03:30 EDT    0.15   0.47    6  228    9 -99.9  82.2 -999.9 -9.9 -9.999 -99.9 -99.99 -9.99
2019/07/17 03:36 EDT    0.13   0.47    8  221   10 -99.9  82.2 -999.9 -9.9 -9.999 -99.9 -99.99 -9.99
2019/07/17 03:42 EDT    0.12   0.47    6  223   10 -99.9  82.2 -999.9 -9.9 -9.999 -99.9 -99.99 -9.99
2019/07/17 03:48 EDT    0.11   0.46    8  223   10 -99.9  82.0 -999.9 -9.9 -9.999 -99.9 -99.99 -9.99
2019/07/17 03:54 EDT    0.11   0.44    9  223   11 -99.9  82.0 -999.9 -9.9 -9.999 -99.9 -99.99 -9.99
2019/07/17 04:00 EDT    0.11   0.42   10  223   11 -99.9  82.0 -999.9 -9.9 -9.999 -99.9 -99.99 -9.99
2019/07/17 04:06 EDT    0.11   0.44    9  222   11 -99.9  82.0 -999.9 -9.9 -9.999 -99.9 -99.99 -9.99
2019/07/17 04:12 EDT    0.11   0.43   10  220   11 -99.9  82.2 -999.9 -9.9 -9.999 -99.9 -99.99 -9.99
2019/07/17 04:18 EDT    0.12   0.45   10  226   12 -99.9  82.2 -999.9 -9.9 -9.999 -99.9 -99.99 -9.99
2019/07/17 04:24 EDT    0.13   0.44   10  223   12 -99.9  82.2 -999.9 -9.9 -9.999 -99.9 -99.99 -9.99
2019/07/17 04:30 EDT    0.15   0.44   10  219   12 -99.9  82.2 -999.9 -9.9 -9.999 -99.9 -99.99 -9.99
2019/07/17 04:36 EDT    0.17   0.46   11  217   12 -99.9  82.2 -999.9 -9.9 -9.999 -99.9 -99.99 -9.99
2019/07/17 04:42 EDT    0.19   0.47    9  218   11 -99.9  82.2 -999.9 -9.9 -9.999 -99.9 -99.99 -9.99
2019/07/17 04:48 EDT    0.21   0.50    9  222   11 -99.9  82.2 -999.9 -9.9 -9.999 -99.9 -99.99 -9.99
2019/07/17 04:54 EDT    0.24   0.51    9  227   11 -99.9  82.2 -999.9 -9.9 -9.999 -99.9 -99.99 -9.99
2019/07/17 05:00 EDT    0.27   0.53    9  235   12 -99.9  82.2 -999.9 -9.9 -9.999 -99.9 -99.99 -9.99
2019/07/17 05:06 EDT    0.31   0.56   11  231   15 -99.9  82.2 -999.9 -9.9 -9.999 -99.9 -99.99 -9.99
2019/07/17 05:12 EDT    0.35   0.58   10  230   14 -99.9  82.2 -999.9 -9.9 -9.999 -99.9 -99.99 -9.99
2019/07/17 05:18 EDT    0.39   0.61   10  231   13 -99.9  82.2 -999.9 -9.9 -9.999 -99.9 -99.99 -9.99
2019/07/17 05:24 EDT    0.43   0.66   10  234   13 -99.9  82.2 -999.9 -9.9 -9.999 -99.9 -99.99 -9.99
2019/07/17 05:30 EDT    0.48   0.71   11  233   12 -99.9  82.2 -999.9 -9.9 -9.999 -99.9 -99.99 -9.99
2019/07/17 05:36 EDT    0.53   0.77   11  237   14 -99.9  82.2 -999.9 -9.9 -9.999 -99.9 -99.99 -9.99
2019/07/17 05:42 EDT    0.58   0.82   11  231   13 -99.9  82.2 -999.9 -9.9 -9.999 -99.9 -99.99 -9.99
2019/07/17 05:48 EDT    0.64   0.87   11  229   13 -99.9  82.2 -999.9 -9.9 -9.999 -99.9 -99.99 -9.99
2019/07/17 05:54 EDT    0.70   0.91   12  231   14 -99.9  82.0 -999.9 -9.9 -9.999 -99.9 -99.99 -9.99
2019/07/17 06:00 EDT    0.75   0.96   11  229   14 -99.9  82.0 -999.9 -9.9 -9.999 -99.9 -99.99 -9.99
2019/07/17 06:06 EDT    0.82   1.01   11  232   13 -99.9  82.0 -999.9 -9.9 -9.999 -99.9 -99.99 -9.99
2019/07/17 06:12 EDT    0.88   1.09   11  230   13 -99.9  82.0 -999.9 -9.9 -9.999 -99.9 -99.99 -9.99
2019/07/17 06:18 EDT    0.94   1.15   10  223   14 -99.9  82.0 -999.9 -9.9 -9.999 -99.9 -99.99 -9.99
2019/07/17 06:24 EDT    1.01   1.23   11  221   13 -99.9  82.0 -999.9 -9.9 -9.999 -99.9 -99.99 -9.99
2019/07/17 06:30 EDT    1.07   1.30   11  221   13 -99.9  82.0 -999.9 -9.9 -9.999 -99.9 -99.99 -9.99
2019/07/17 06:36 EDT    1.14   1.37   10  227   13 -99.9  82.0 -999.9 -9.9 -9.999 -99.9 -99.99 -9.99
2019/07/17 06:42 EDT    1.21   1.46   10  219   12 -99.9  82.0 -999.9 -9.9 -9.999 -99.9 -99.99 -9.99
2019/07/17 06:48 EDT    1.27   1.53   11  224   13 -99.9  82.0 -999.9 -9.9 -9.999 -99.9 -99.99 -9.99
2019/07/17 06:54 EDT    1.34   1.61   11  225   13 -99.9  82.0 -999.9 -9.9 -9.999 -99.9 -99.99 -9.99
2019/07/17 07:00 EDT    1.40   1.67   12  229   14 -99.9  82.0 -999.9 -9.9 -9.999 -99.9 -99.99 -9.99
2019/07/17 07:06 EDT    1.47   1.76   12  234   14 -99.9  82.0 -999.9 -9.9 -9.999 -99.9 -99.99 -9.99
2019/07/17 07:12 EDT    1.53   1.84   12  228   14 -99.9  82.0 -999.9 -9.9 -9.999 -99.9 -99.99 -9.99
2019/07/17 07:18 EDT    1.60   1.92   11  232   14 -99.9  82.0 -999.9 -9.9 -9.999 -99.9 -99.99 -9.99
2019/07/17 07:24 EDT    1.66   1.97   13  233   17 -99.9  82.0 -999.9 -9.9 -9.999 -99.9 -99.99 -9.99
2019/07/17 07:30 EDT    1.72   2.03   14  237   17 -99.9  82.0 -999.9 -9.9 -9.999 -99.9 -99.99 -9.99
2019/07/17 07:36 EDT    1.78   2.09   14  242   18 -99.9  82.0 -999.9 -9.9 -9.999 -99.9 -99.99 -9.99
2019/07/17 07:42 EDT    1.84   2.17   12  233   16 -99.9  82.0 -999.9 -9.9 -9.999 -99.9 -99.99 -9.99
2019/07/17 07:48 EDT    1.89   2.23   11  237   14 -99.9  82.0 -999.9 -9.9 -9.999 -99.9 -99.99 -9.99
2019/07/17 07:54 EDT    1.95   2.29   12  234   15 -99.9  82.0 -999.9 -9.9 -9.999 -99.9 -99.99 -9.99
2019/07/17 08:00 EDT    2.00   2.35   13  238   14 -99.9  82.0 -999.9 -9.9 -9.999 -99.9 -99.99 -9.99
2019/07/17 08:06 EDT    2.05   2.39   13  239   16 -99.9  82.0 -999.9 -9.9 -9.999 -99.9 -99.99 -9.99
2019/07/17 08:12 EDT    2.09   2.46   12  241   15 -99.9  82.0 -999.9 -9.9 -9.999 -99.9 -99.99 -9.99
2019/07/17 08:18 EDT    2.14   2.51   12  238   15 -99.9  82.2 -999.9 -9.9 -9.999 -99.9 -99.99 -9.99
2019/07/17 08:24 EDT    2.18   2.54   12  237   13 -99.9  82.2 -999.9 -9.9 -9.999 -99.9 -99.99 -9.99
2019/07/17 08:30 EDT    2.22   2.58   12  236   14 -99.9  82.2 -999.9 -9.9 -9.999 -99.9 -99.99 -9.99
2019/07/17 08:36 EDT    2.26   2.65   10  236   13 -99.9  82.2 -999.9 -9.9 -9.999 -99.9 -99.99 -9.99
2019/07/17 08:42 EDT    2.29   2.71   11  239   14 -99.9  82.2 -999.9 -9.9 -9.999 -99.9 -99.99 -9.99
2019/07/17 08:48 EDT    2.32   2.73   11  236   13 -99.9  82.2 -999.9 -9.9 -9.999 -99.9 -99.99 -9.99
2019/07/17 08:54 EDT    2.35   2.77   12  236   15 -99.9  82.2 -999.9 -9.9 -9.999 -99.9 -99.99 -9.99
2019/07/17 09:00 EDT    2.37   2.79   12  238   15 -99.9  82.2 -999.9 -9.9 -9.999 -99.9 -99.99 -9.99
2019/07/17 09:06 EDT    2.40   2.82   11  236   14 -99.9  82.2 -999.9 -9.9 -9.999 -99.9 -99.99 -9.99
2019/07/17 09:12 EDT    2.42   2.85   11  232   13 -99.9  82.2 -999.9 -9.9 -9.999 -99.9 -99.99 -9.99
2019/07/17 09:18 EDT    2.43   2.87   10  236   13 -99.9  82.2 -999.9 -9.9 -9.999 -99.9 -99.99 -9.99
2019/07/17 09:24 EDT    2.45   2.89   10  240   14 -99.9  82.2 -999.9 -9.9 -9.999 -99.9 -99.99 -9.99
2019/07/17 09:30 EDT    2.46   2.87    9  245   11 -99.9  82.2 -999.9 -9.9 -9.999 -99.9 -99.99 -9.99
2019/07/17 09:36 EDT    2.47   2.89    9  238   11 -99.9  82.4 -999.9 -9.9 -9.999 -99.9 -99.99 -9.99
2019/07/17 09:42 EDT    2.47   2.89    7  240   10 -99.9  82.4 -999.9 -9.9 -9.999 -99.9 -99.99 -9.99
2019/07/17 09:48 EDT    2.48   2.91    8  243   10 -99.9  82.6 -999.9 -9.9 -9.999 -99.9 -99.99 -9.99
2019/07/17 09:54 EDT    2.48   2.91    7  246   11 -99.9  82.6 -999.9 -9.9 -9.999 -99.9 -99.99 -9.99
2019/07/17 10:00 EDT    2.47   2.90    8  248   12 -99.9  82.6 -999.9 -9.9 -9.999 -99.9 -99.99 -9.99
2019/07/17 10:06 EDT    2.47   2.90    8  242   10 -99.9  82.6 -999.9 -9.9 -9.999 -99.9 -99.99 -9.99
2019/07/17 10:12 EDT    2.46   2.87    9  234   10 -99.9  82.6 -999.9 -9.9 -9.999 -99.9 -99.99 -9.99
2019/07/17 10:18 EDT    2.45   2.86    9  229   11 -99.9  82.8 -999.9 -9.9 -9.999 -99.9 -99.99 -9.99
2019/07/17 10:24 EDT    2.43   2.85    7  234    9 -99.9  82.8 -999.9 -9.9 -9.999 -99.9 -99.99 -9.99
2019/07/17 10:30 EDT    2.42   2.84    7  221    8 -99.9  82.8 -999.9 -9.9 -9.999 -99.9 -99.99 -9.99
2019/07/17 10:36 EDT    2.40   2.82    6  217    7 -99.9  82.9 -999.9 -9.9 -9.999 -99.9 -99.99 -9.99
2019/07/17 10:42 EDT    2.37   2.80    6  233    6 -99.9  82.9 -999.9 -9.9 -9.999 -99.9 -99.99 -9.99
2019/07/17 10:48 EDT    2.35   2.77    5  227    6 -99.9  82.9 -999.9 -9.9 -9.999 -99.9 -99.99 -9.99
2019/07/17 10:54 EDT    2.32   2.74    7  214    7 -99.9  83.1 -999.9 -9.9 -9.999 -99.9 -99.99 -9.99
2019/07/17 11:00 EDT    2.28   2.72    6  216    7 -99.9  83.1 -999.9 -9.9 -9.999 -99.9 -99.99 -9.99
2019/07/17 11:06 EDT    2.25   2.67    5  220    7 -99.9  83.1 -999.9 -9.9 -9.999 -99.9 -99.99 -9.99
2019/07/17 11:12 EDT    2.21   2.62    4  221    6 -99.9  83.1 -999.9 -9.9 -9.999 -99.9 -99.99 -9.99
2019/07/17 11:18 EDT    2.17   2.58    4  213    5 -99.9  83.1 -999.9 -9.9 -9.999 -99.9 -99.99 -9.99
2019/07/17 11:24 EDT    2.13   2.55    4  214    5 -99.9  83.3 -999.9 -9.9 -9.999 -99.9 -99.99 -9.99
2019/07/17 11:30 EDT    2.08   2.51    4  217    5 -99.9  83.3 -999.9 -9.9 -9.999 -99.9 -99.99 -9.99
2019/07/17 11:36 EDT    2.04   2.47    4  228    5 -99.9  83.3 -999.9 -9.9 -9.999 -99.9 -99.99 -9.99
2019/07/17 11:42 EDT    1.99   2.41    4  222    5 -99.9  83.3 -999.9 -9.9 -9.999 -99.9 -99.99 -9.99
2019/07/17 11:48 EDT    1.93   2.37    4  215    5 -99.9  83.3 -999.9 -9.9 -9.999 -99.9 -99.99 -9.99
2019/07/17 11:54 EDT    1.88   2.32    3  212    4 -99.9  83.3 -999.9 -9.9 -9.999 -99.9 -99.99 -9.99
2019/07/17 12:00 EDT    1.82   2.27    3  224    4 -99.9  83.1 -999.9 -9.9 -9.999 -99.9 -99.99 -9.99
2019/07/17 12:06 EDT    1.77   2.20    4  226    5 -99.9  83.3 -999.9 -9.9 -9.999 -99.9 -99.99 -9.99
2019/07/17 12:12 EDT    1.71   2.14    4  230    5 -99.9  83.3 -999.9 -9.9 -9.999 -99.9 -99.99 -9.99
2019/07/17 12:18 EDT    1.65   2.07    5  238    5 -99.9  83.3 -999.9 -9.9 -9.999 -99.9 -99.99 -9.99
2019/07/17 12:24 EDT    1.59   2.00    5  238    5 -99.9  83.3 -999.9 -9.9 -9.999 -99.9 -99.99 -9.99
2019/07/17 12:30 EDT    1.52   1.95    5  233    6 -99.9  83.5 -999.9 -9.9 -9.999 -99.9 -99.99 -9.99
2019/07/17 12:36 EDT    1.46   1.89    5  232    6 -99.9  83.5 -999.9 -9.9 -9.999 -99.9 -99.99 -9.99
2019/07/17 12:42 EDT    1.40   1.81    5  229    6 -99.9  83.5 -999.9 -9.9 -9.999 -99.9 -99.99 -9.99
2019/07/17 12:48 EDT    1.33   1.75    6  208    7 -99.9  83.5 -999.9 -9.9 -9.999 -99.9 -99.99 -9.99
2019/07/17 12:54 EDT    1.27   1.69    5  205    6 -99.9  83.3 -999.9 -9.9 -9.999 -99.9 -99.99 -9.99
2019/07/17 13:00 EDT    1.20   1.62    5  216    6 -99.9  83.3 -999.9 -9.9 -9.999 -99.9 -99.99 -9.99
2019/07/17 13:06 EDT    1.14   1.54    5  195    5 -99.9  83.1 -999.9 -9.9 -9.999 -99.9 -99.99 -9.99
2019/07/17 13:12 EDT    1.08   1.47    5  209    6 -99.9  83.1 -999.9 -9.9 -9.999 -99.9 -99.99 -9.99
2019/07/17 13:18 EDT    1.01   1.41    6  218    7 -99.9  83.1 -999.9 -9.9 -9.999 -99.9 -99.99 -9.99
2019/07/17 13:24 EDT    0.95   1.33    5  216    6 -99.9  82.9 -999.9 -9.9 -9.999 -99.9 -99.99 -9.99
2019/07/17 13:30 EDT    0.89   1.27    5  207    9 -99.9  83.1 -999.9 -9.9 -9.999 -99.9 -99.99 -9.99
2019/07/17 13:36 EDT    0.83   1.19    5  195    6 -99.9  82.9 -999.9 -9.9 -9.999 -99.9 -99.99 -9.99
2019/07/17 13:42 EDT    0.78   1.12    6  198    9 -99.9  82.9 -999.9 -9.9 -9.999 -99.9 -99.99 -9.99
2019/07/17 13:48 EDT    0.72   1.06    5  193    6 -99.9  82.9 -999.9 -9.9 -9.999 -99.9 -99.99 -9.99
2019/07/17 13:54 EDT    0.67   1.01    6  228    7 -99.9  83.1 -999.9 -9.9 -9.999 -99.9 -99.99 -9.99
2019/07/17 14:00 EDT    0.62   0.94    7  235    9 -99.9  82.9 -999.9 -9.9 -9.999 -99.9 -99.99 -9.99
2019/07/17 14:06 EDT    0.57   0.88    8  228    9 -99.9  83.1 -999.9 -9.9 -9.999 -99.9 -99.99 -9.99
2019/07/17 14:12 EDT    0.52   0.82    7  225    9 -99.9  82.9 -999.9 -9.9 -9.999 -99.9 -99.99 -9.99
2019/07/17 14:18 EDT    0.48   0.78    8  218    9 -99.9  82.9 -999.9 -9.9 -9.999 -99.9 -99.99 -9.99
2019/07/17 14:24 EDT    0.43   0.73    7  220    9 -99.9  83.1 -999.9 -9.9 -9.999 -99.9 -99.99 -9.99
2019/07/17 14:30 EDT    0.39   0.69    9  219   10 -99.9  83.3 -999.9 -9.9 -9.999 -99.9 -99.99 -9.99
2019/07/17 14:36 EDT    0.36   0.64    8  220   10 -99.9  83.3 -999.9 -9.9 -9.999 -99.9 -99.99 -9.99
2019/07/17 14:42 EDT    0.32   0.60    7  226    9 -99.9  83.3 -999.9 -9.9 -9.999 -99.9 -99.99 -9.99
2019/07/17 14:48 EDT    0.29   0.56    7  222    8 -99.9  83.5 -999.9 -9.9 -9.999 -99.9 -99.99 -9.99
2019/07/17 14:54 EDT    0.26   0.54    6  226    8 -99.9  83.7 -999.9 -9.9 -9.999 -99.9 -99.99 -9.99
2019/07/17 15:00 EDT    0.24   0.51    7  229    8 -99.9  83.7 -999.9 -9.9 -9.999 -99.9 -99.99 -9.99
2019/07/17 15:06 EDT    0.21   0.47    8  229    9 -99.9  83.7 -999.9 -9.9 -9.999 -99.9 -99.99 -9.99
2019/07/17 15:12 EDT    0.19   0.45    8  231   10 -99.9  83.7 -999.9 -9.9 -9.999 -99.9 -99.99 -9.99
2019/07/17 15:18 EDT    0.17   0.46    8  234   10 -99.9  83.7 -999.9 -9.9 -9.999 -99.9 -99.99 -9.99
2019/07/17 15:24 EDT    0.16   0.43    8  235    9 -99.9  83.8 -999.9 -9.9 -9.999 -99.9 -99.99 -9.99
2019/07/17 15:30 EDT    0.15   0.40    8  234   10 -99.9  83.8 -999.9 -9.9 -9.999 -99.9 -99.99 -9.99
2019/07/17 15:36 EDT    0.14   0.37    8  234   10 -99.9  83.8 -999.9 -9.9 -9.999 -99.9 -99.99 -9.99
2019/07/17 15:42 EDT    0.14   0.37    9  236   10 -99.9  84.0 -999.9 -9.9 -9.999 -99.9 -99.99 -9.99
2019/07/17 15:48 EDT    0.13   0.35    7  219    9 -99.9  84.0 -999.9 -9.9 -9.999 -99.9 -99.99 -9.99
2019/07/17 15:54 EDT    0.13   0.35    6  188    8 -99.9  84.0 -999.9 -9.9 -9.999 -99.9 -99.99 -9.99
2019/07/17 16:00 EDT    0.14   0.34    6  195    7 -99.9  84.0 -999.9 -9.9 -9.999 -99.9 -99.99 -9.99
2019/07/17 16:06 EDT    0.15   0.35   10  201   12 -99.9  84.0 -999.9 -9.9 -9.999 -99.9 -99.99 -9.99
2019/07/17 16:12 EDT    0.16   0.36    9  211   12 -99.9  84.0 -999.9 -9.9 -9.999 -99.9 -99.99 -9.99
2019/07/17 16:18 EDT    0.17   0.37    9  195   12 -99.9  84.0 -999.9 -9.9 -9.999 -99.9 -99.99 -9.99
2019/07/17 16:24 EDT    0.19   0.39    8  184   10 -99.9  84.0 -999.9 -9.9 -9.999 -99.9 -99.99 -9.99
2019/07/17 16:30 EDT    0.21   0.39    8  185   10 -99.9  83.8 -999.9 -9.9 -9.999 -99.9 -99.99 -9.99
2019/07/17 16:36 EDT    0.23   0.47   10  195   11 -99.9  83.8 -999.9 -9.9 -9.999 -99.9 -99.99 -9.99
2019/07/17 16:42 EDT    0.26   0.54   11  197   16 -99.9  83.8 -999.9 -9.9 -9.999 -99.9 -99.99 -9.99
2019/07/17 16:48 EDT    0.29   0.46   13  186   15 -99.9  84.0 -999.9 -9.9 -9.999 -99.9 -99.99 -9.99
2019/07/17 16:54 EDT    0.32   0.46   13  182   15 -99.9  84.0 -999.9 -9.9 -9.999 -99.9 -99.99 -9.99
2019/07/17 17:00 EDT    0.36   0.50    9  184   11 -99.9  84.0 -999.9 -9.9 -9.999 -99.9 -99.99 -9.99
2019/07/17 17:06 EDT    0.40   0.53    9  185   10 -99.9  83.8 -999.9 -9.9 -9.999 -99.9 -99.99 -9.99
2019/07/17 17:12 EDT    0.44   0.53    8  186   10 -99.9  84.0 -999.9 -9.9 -9.999 -99.9 -99.99 -9.99
2019/07/17 17:18 EDT    0.49   0.63    8  187   10 -99.9  84.0 -999.9 -9.9 -9.999 -99.9 -99.99 -9.99
2019/07/17 17:24 EDT    0.53   0.67   10  182   11 -99.9  84.0 -999.9 -9.9 -9.999 -99.9 -99.99 -9.99
2019/07/17 17:30 EDT    0.59   0.74    9  179   10 -99.9  84.0 -999.9 -9.9 -9.999 -99.9 -99.99 -9.99
2019/07/17 17:36 EDT    0.64   0.77    9  185   10 -99.9  84.2 -999.9 -9.9 -9.999 -99.9 -99.99 -9.99
2019/07/17 17:42 EDT    0.70   0.85   14  175   17 -99.9  84.2 -999.9 -9.9 -9.999 -99.9 -99.99 -9.99
2019/07/17 17:48 EDT    0.76   0.91   21  177   29 -99.9  84.2 -999.9 -9.9 -9.999 -99.9 -99.99 -9.99
2019/07/17 17:54 EDT    0.82   0.98   17  178   24 -99.9  84.9 -999.9 -9.9 -9.999 -99.9 -99.99 -9.99
2019/07/17 18:00 EDT    0.89   1.08   17  185   19 -99.9  84.0 -999.9 -9.9 -9.999 -99.9 -99.99 -9.99
2019/07/17 18:06 EDT    0.95   1.19   18  187   19 -99.9  83.3 -999.9 -9.9 -9.999 -99.9 -99.99 -9.99
2019/07/17 18:12 EDT    1.02   1.23   16  192   20 -99.9  83.3 -999.9 -9.9 -9.999 -99.9 -99.99 -9.99
2019/07/17 18:18 EDT    1.09   1.26   17  191   21 -99.9  83.1 -999.9 -9.9 -9.999 -99.9 -99.99 -9.99
2019/07/17 18:24 EDT    1.16   1.26   16  188   20 -99.9  83.1 -999.9 -9.9 -9.999 -99.9 -99.99 -9.99
2019/07/17 18:30 EDT    1.24   1.29   16  187   18 -99.9  82.9 -999.9 -9.9 -9.999 -99.9 -99.99 -9.99
2019/07/17 18:36 EDT    1.31   1.36   17  184   20 -99.9  82.8 -999.9 -9.9 -9.999 -99.9 -99.99 -9.99
2019/07/17 18:42 EDT    1.39   1.46   18  183   20 -99.9  82.2 -999.9 -9.9 -9.999 -99.9 -99.99 -9.99
2019/07/17 18:48 EDT    1.46   1.55   16  178   18 -99.9  82.8 -999.9 -9.9 -9.999 -99.9 -99.99 -9.99
2019/07/17 18:54 EDT    1.54   1.64   14  177   16 -99.9  82.8 -999.9 -9.9 -9.999 -99.9 -99.99 -9.99
2019/07/17 19:00 EDT    1.62   1.72   15  182   17 -99.9  83.3 -999.9 -9.9 -9.999 -99.9 -99.99 -9.99
2019/07/17 19:06 EDT    1.69   1.83   15  182   18 -99.9  84.0 -999.9 -9.9 -9.999 -99.9 -99.99 -9.99
2019/07/17 19:12 EDT    1.77   1.89   15  180   18 -99.9  84.7 -999.9 -9.9 -9.999 -99.9 -99.99 -9.99
2019/07/17 19:18 EDT    1.84   1.98   14  179   15 -99.9  84.9 -999.9 -9.9 -9.999 -99.9 -99.99 -9.99
2019/07/17 19:24 EDT    1.92   2.04   13  176   15 -99.9  84.9 -999.9 -9.9 -9.999 -99.9 -99.99 -9.99
2019/07/17 19:30 EDT    1.99   2.12   12  174   14 -99.9  84.9 -999.9 -9.9 -9.999 -99.9 -99.99 -9.99
2019/07/17 19:36 EDT    2.06   2.22   15  174   17 -99.9  85.1 -999.9 -9.9 -9.999 -99.9 -99.99 -9.99
2019/07/17 19:42 EDT    2.13   2.30   16  179   18 -99.9  84.9 -999.9 -9.9 -9.999 -99.9 -99.99 -9.99
2019/07/17 19:48 EDT    2.20   2.41   15  182   18 -99.9  85.1 -999.9 -9.9 -9.999 -99.9 -99.99 -9.99
2019/07/17 19:54 EDT    2.27   2.47   13  188   16 -99.9  85.3 -999.9 -9.9 -9.999 -99.9 -99.99 -9.99
2019/07/17 20:00 EDT    2.33   2.52   12  190   14 -99.9  85.3 -999.9 -9.9 -9.999 -99.9 -99.99 -9.99
2019/07/17 20:06 EDT    2.39   2.57   11  190   15 -99.9  85.3 -999.9 -9.9 -9.999 -99.9 -99.99 -9.99
2019/07/17 20:12 EDT    2.45   2.62   11  181   12 -99.9  85.3 -999.9 -9.9 -9.999 -99.9 -99.99 -9.99
2019/07/17 20:18 EDT    2.51   2.67   11  174   12 -99.9  85.5 -999.9 -9.9 -9.999 -99.9 -99.99 -9.99
2019/07/17 20:24 EDT    2.57   2.72   12  182   13 -99.9  85.5 -999.9 -9.9 -9.999 -99.9 -99.99 -9.99
2019/07/17 20:30 EDT    2.62   2.79   12  183   13 -99.9  85.5 -999.9 -9.9 -9.999 -99.9 -99.99 -9.99
2019/07/17 20:36 EDT    2.67   2.84   12  184   14 -99.9  85.6 -999.9 -9.9 -9.999 -99.9 -99.99 -9.99
2019/07/17 20:42 EDT    2.71   2.88   13  183   14 -99.9  85.6 -999.9 -9.9 -9.999 -99.9 -99.99 -9.99
2019/07/17 20:48 EDT    2.75   2.95   13  180   15 -99.9  85.6 -999.9 -9.9 -9.999 -99.9 -99.99 -9.99
2019/07/17 20:54 EDT    2.79   3.00   14  182   16 -99.9  85.3 -999.9 -9.9 -9.999 -99.9 -99.99 -9.99
2019/07/17 21:00 EDT    2.83   3.02   14  185   17 -99.9  85.1 -999.9 -9.9 -9.999 -99.9 -99.99 -9.99
2019/07/17 21:06 EDT    2.86   3.06   13  184   16 -99.9  84.9 -999.9 -9.9 -9.999 -99.9 -99.99 -9.99
2019/07/17 21:12 EDT    2.89   3.10   14  180   15 -99.9  84.9 -999.9 -9.9 -9.999 -99.9 -99.99 -9.99
2019/07/17 21:18 EDT    2.92   3.11   13  185   14 -99.9  84.9 -999.9 -9.9 -9.999 -99.9 -99.99 -9.99
2019/07/17 21:24 EDT    2.95   3.16   13  186   15 -99.9  85.1 -999.9 -9.9 -9.999 -99.9 -99.99 -9.99
2019/07/17 21:30 EDT    2.97   3.24   14  187   15 -99.9  85.3 -999.9 -9.9 -9.999 -99.9 -99.99 -9.99
2019/07/17 21:36 EDT    2.98   3.39   13  187   16 -99.9  84.9 -999.9 -9.9 -9.999 -99.9 -99.99 -9.99
2019/07/17 21:42 EDT    3.00   3.55   12  183   14 -99.9  84.7 -999.9 -9.9 -9.999 -99.9 -99.99 -9.99
2019/07/17 21:48 EDT    3.01   3.17   14  187   16 -99.9  84.7 -999.9 -9.9 -9.999 -99.9 -99.99 -9.99
2019/07/17 21:54 EDT    3.02   3.15   14  192   17 -99.9  84.7 -999.9 -9.9 -9.999 -99.9 -99.99 -9.99
2019/07/17 22:00 EDT    3.02   3.25   14  195   16 -99.9  84.7 -999.9 -9.9 -9.999 -99.9 -99.99 -9.99
2019/07/17 22:06 EDT    3.03   3.33   29  281   38 -99.9  84.9 -999.9 -9.9 -9.999 -99.9 -99.99 -9.99
2019/07/17 22:12 EDT    3.02   3.44   33  302   36 -99.9  84.9 -999.9 -9.9 -9.999 -99.9 -99.99 -9.99
2019/07/17 22:18 EDT    3.02   3.68   33  316   45 -99.9  84.7 -999.9 -9.9 -9.999 -99.9 -99.99 -9.99
2019/07/17 22:24 EDT    3.01   3.57   25  325   48 -99.9  84.6 -999.9 -9.9 -9.999 -99.9 -99.99 -9.99
2019/07/17 22:30 EDT    3.00   3.18   14    1   29 -99.9  84.6 -999.9 -9.9 -9.999 -99.9 -99.99 -9.99
2019/07/17 22:36 EDT    2.99   3.06    8  238   16 -99.9  84.2 -999.9 -9.9 -9.999 -99.9 -99.99 -9.99
2019/07/17 22:42 EDT    2.97   2.98    6  163    9 -99.9  83.7 -999.9 -9.9 -9.999 -99.9 -99.99 -9.99
2019/07/17 22:48 EDT    2.95   3.01    7  189    9 -99.9  83.8 -999.9 -9.9 -9.999 -99.9 -99.99 -9.99
2019/07/17 22:54 EDT    2.93   3.08    9  178   10 -99.9  83.8 -999.9 -9.9 -9.999 -99.9 -99.99 -9.99
2019/07/17 23:00 EDT    2.90   3.13    9  149   11 -99.9  83.8 -999.9 -9.9 -9.999 -99.9 -99.99 -9.99
2019/07/17 23:06 EDT    2.87   2.99    9  153   11 -99.9  83.8 -999.9 -9.9 -9.999 -99.9 -99.99 -9.99
2019/07/17 23:12 EDT    2.84   3.15    9  155   11 -99.9  83.8 -999.9 -9.9 -9.999 -99.9 -99.99 -9.99
2019/07/17 23:18 EDT    2.80   3.13   11  174   12 -99.9  83.8 -999.9 -9.9 -9.999 -99.9 -99.99 -9.99
2019/07/17 23:24 EDT    2.77   3.15   10  166   12 -99.9  83.7 -999.9 -9.9 -9.999 -99.9 -99.99 -9.99
2019/07/17 23:30 EDT    2.73   3.16    7  182   11 -99.9  83.3 -999.9 -9.9 -9.999 -99.9 -99.99 -9.99
2019/07/17 23:36 EDT    2.68   3.02   10  179   12 -99.9  83.1 -999.9 -9.9 -9.999 -99.9 -99.99 -9.99
2019/07/17 23:42 EDT    2.63   3.09    5  187   11 -99.9  82.9 -999.9 -9.9 -9.999 -99.9 -99.99 -9.99
2019/07/17 23:48 EDT    2.58   3.10   16  347   20 -99.9  82.9 -999.9 -9.9 -9.999 -99.9 -99.99 -9.99
2019/07/17 23:54 EDT    2.53   3.05    6   55   18 -99.9  83.1 -999.9 -9.9 -9.999 -99.9 -99.99 -9.99
2019/07/18 00:00 EDT    2.48   2.94    5   51    6 -99.9  83.3 -999.9 -9.9 -9.999 -99.9 -99.99 -9.99
2019/07/18 00:06 EDT    2.42   2.71    4   22    6 -99.9  83.3 -999.9 -9.9 -9.999 -99.9 -99.99 -9.99
2019/07/18 00:12 EDT    2.36   2.53    8   64   10 -99.9  83.1 -999.9 -9.9 -9.999 -99.9 -99.99 -9.99
2019/07/18 00:18 EDT    2.30   2.41    6   54   10 -99.9  82.8 -999.9 -9.9 -9.999 -99.9 -99.99 -9.99
2019/07/18 00:24 EDT    2.23   2.42    7   80   10 -99.9  82.8 -999.9 -9.9 -9.999 -99.9 -99.99 -9.99
2019/07/18 00:30 EDT    2.17   2.44    5   77    8 -99.9  82.6 -999.9 -9.9 -9.999 -99.9 -99.99 -9.99
2019/07/18 00:36 EDT    2.10   2.42    6   83    7 -99.9  82.6 -999.9 -9.9 -9.999 -99.9 -99.99 -9.99
2019/07/18 00:42 EDT    2.03   2.38    5   83    6 -99.9  82.6 -999.9 -9.9 -9.999 -99.9 -99.99 -9.99
2019/07/18 00:48 EDT    1.96   2.29    6   80    7 -99.9  82.6 -999.9 -9.9 -9.999 -99.9 -99.99 -9.99
2019/07/18 00:54 EDT    1.89   2.25    6   89    6 -99.9  82.6 -999.9 -9.9 -9.999 -99.9 -99.99 -9.99
2019/07/18 01:00 EDT    1.82   2.20    5   87    5 -99.9  82.6 -999.9 -9.9 -9.999 -99.9 -99.99 -9.99
2019/07/18 01:06 EDT    1.75   2.16    4   93    5 -99.9  82.8 -999.9 -9.9 -9.999 -99.9 -99.99 -9.99
2019/07/18 01:12 EDT    1.68   2.05    4  105    6 -99.9  82.8 -999.9 -9.9 -9.999 -99.9 -99.99 -9.99
2019/07/18 01:18 EDT    1.60   1.91    5  130    6 -99.9  82.8 -999.9 -9.9 -9.999 -99.9 -99.99 -9.99
2019/07/18 01:24 EDT    1.53   1.76    7  144    8 -99.9  82.8 -999.9 -9.9 -9.999 -99.9 -99.99 -9.99
2019/07/18 01:30 EDT    1.46   1.67    8  145    9 -99.9  82.8 -999.9 -9.9 -9.999 -99.9 -99.99 -9.99
2019/07/18 01:36 EDT    1.39   1.57    9  147    9 -99.9  82.8 -999.9 -9.9 -9.999 -99.9 -99.99 -9.99
2019/07/18 01:42 EDT    1.32   1.53    8  148    9 -99.9  82.8 -999.9 -9.9 -9.999 -99.9 -99.99 -9.99
2019/07/18 01:48 EDT    1.24   1.49    8  162   10 -99.9  82.8 -999.9 -9.9 -9.999 -99.9 -99.99 -9.99
2019/07/18 01:54 EDT    1.18   1.40    9  189   10 -99.9  82.6 -999.9 -9.9 -9.999 -99.9 -99.99 -9.99
2019/07/18 02:00 EDT    1.11   1.31    8  199   10 -99.9  82.6 -999.9 -9.9 -9.999 -99.9 -99.99 -9.99
2019/07/18 02:06 EDT    1.04   1.23    9  204   10 -99.9  82.6 -999.9 -9.9 -9.999 -99.9 -99.99 -9.99
2019/07/18 02:12 EDT    0.98   1.16    8  201   10 -99.9  82.6 -999.9 -9.9 -9.999 -99.9 -99.99 -9.99
2019/07/18 02:18 EDT    0.91   1.11   10  199   11 -99.9  82.6 -999.9 -9.9 -9.999 -99.9 -99.99 -9.99
2019/07/18 02:24 EDT    0.85   1.06   11  207   12 -99.9  82.6 -999.9 -9.9 -9.999 -99.9 -99.99 -9.99
2019/07/18 02:30 EDT    0.79   1.04   11  207   13 -99.9  82.6 -999.9 -9.9 -9.999 -99.9 -99.99 -9.99
2019/07/18 02:36 EDT    0.73   0.97   11  211   12 -99.9  82.6 -999.9 -9.9 -9.999 -99.9 -99.99 -9.99
2019/07/18 02:42 EDT    0.68   0.92   11  216   15 -99.9  82.6 -999.9 -9.9 -9.999 -99.9 -99.99 -9.99
2019/07/18 02:48 EDT    0.63   0.89   11  229   14 -99.9  82.6 -999.9 -9.9 -9.999 -99.9 -99.99 -9.99
2019/07/18 02:54 EDT    0.58   0.85   16  242   20 -99.9  82.6 -999.9 -9.9 -9.999 -99.9 -99.99 -9.99
2019/07/18 03:00 EDT    0.53   0.78   17  241   22 -99.9  82.6 -999.9 -9.9 -9.999 -99.9 -99.99 -9.99
2019/07/18 03:06 EDT    0.48   0.76   16  240   20 -99.9  82.6 -999.9 -9.9 -9.999 -99.9 -99.99 -9.99
2019/07/18 03:12 EDT    0.44   0.71   15  245   19 -99.9  82.6 -999.9 -9.9 -9.999 -99.9 -99.99 -9.99
2019/07/18 03:18 EDT    0.40   0.69   15  246   18 -99.9  82.6 -999.9 -9.9 -9.999 -99.9 -99.99 -9.99
2019/07/18 03:24 EDT    0.36   0.65   15  241   18 -99.9  82.4 -999.9 -9.9 -9.999 -99.9 -99.99 -9.99
2019/07/18 03:30 EDT    0.33   0.51   12  232   17 -99.9  82.6 -999.9 -9.9 -9.999 -99.9 -99.99 -9.99
2019/07/18 03:36 EDT    0.30   0.42   11  227   16 -99.9  82.6 -999.9 -9.9 -9.999 -99.9 -99.99 -9.99
2019/07/18 03:42 EDT    0.27   0.40   11  239   14 -99.9  82.6 -999.9 -9.9 -9.999 -99.9 -99.99 -9.99
2019/07/18 03:48 EDT    0.24   0.38   12  230   16 -99.9  82.6 -999.9 -9.9 -9.999 -99.9 -99.99 -9.99
2019/07/18 03:54 EDT    0.22   0.33   14  233   16 -99.9  82.6 -999.9 -9.9 -9.999 -99.9 -99.99 -9.99
2019/07/18 04:00 EDT    0.20   0.32   12  232   16 -99.9  82.6 -999.9 -9.9 -9.999 -99.9 -99.99 -9.99
2019/07/18 04:06 EDT    0.18   0.33   13  232   17 -99.9  82.6 -999.9 -9.9 -9.999 -99.9 -99.99 -9.99
2019/07/18 04:12 EDT    0.17   0.36   17  227   18 -99.9  82.6 -999.9 -9.9 -9.999 -99.9 -99.99 -9.99
2019/07/18 04:18 EDT    0.15   0.38   16  227   19 -99.9  82.6 -999.9 -9.9 -9.999 -99.9 -99.99 -9.99
2019/07/18 04:24 EDT    0.15   0.36   14  225   19 -99.9  82.8 -999.9 -9.9 -9.999 -99.9 -99.99 -9.99
2019/07/18 04:30 EDT    0.14   0.36   13  228   16 -99.9  82.8 -999.9 -9.9 -9.999 -99.9 -99.99 -9.99
2019/07/18 04:36 EDT    0.14   0.38   12  223   15 -99.9  82.8 -999.9 -9.9 -9.999 -99.9 -99.99 -9.99
2019/07/18 04:42 EDT    0.14   0.37   12  214   14 -99.9  82.8 -999.9 -9.9 -9.999 -99.9 -99.99 -9.99
2019/07/18 04:48 EDT    0.14   0.40   12  218   14 -99.9  82.8 -999.9 -9.9 -9.999 -99.9 -99.99 -9.99
2019/07/18 04:54 EDT    0.15   0.42   13  218   15 -99.9  82.8 -999.9 -9.9 -9.999 -99.9 -99.99 -9.99
2019/07/18 05:00 EDT    0.16   0.43   13  222   16 -99.9  82.8 -999.9 -9.9 -9.999 -99.9 -99.99 -9.99
2019/07/18 05:06 EDT    0.18   0.45   13  226   15 -99.9  82.8 -999.9 -9.9 -9.999 -99.9 -99.99 -9.99
2019/07/18 05:12 EDT    0.19   0.47   15  222   18 -99.9  82.8 -999.9 -9.9 -9.999 -99.9 -99.99 -9.99
2019/07/18 05:18 EDT    0.21   0.50   14  223   16 -99.9  82.8 -999.9 -9.9 -9.999 -99.9 -99.99 -9.99
2019/07/18 05:24 EDT    0.24   0.53   16  217   18 -99.9  82.8 -999.9 -9.9 -9.999 -99.9 -99.99 -9.99
2019/07/18 05:30 EDT    0.26   0.60   17  230   21 -99.9  82.8 -999.9 -9.9 -9.999 -99.9 -99.99 -9.99
2019/07/18 05:36 EDT    0.29   0.59   15  225   19 -99.9  82.8 -999.9 -9.9 -9.999 -99.9 -99.99 -9.99
2019/07/18 05:42 EDT    0.32   0.61   17  229   20 -99.9  82.8 -999.9 -9.9 -9.999 -99.9 -99.99 -9.99
2019/07/18 05:48 EDT    0.36   0.64   14  227   20 -99.9  82.6 -999.9 -9.9 -9.999 -99.9 -99.99 -9.99
2019/07/18 05:54 EDT    0.40   0.68   16  228   18 -99.9  82.6 -999.9 -9.9 -9.999 -99.9 -99.99 -9.99
2019/07/18 06:00 EDT    0.44   0.68   15  232   19 -99.9  82.6 -999.9 -9.9 -9.999 -99.9 -99.99 -9.99
2019/07/18 06:06 EDT    0.49   0.69   16  223   18 -99.9  82.8 -999.9 -9.9 -9.999 -99.9 -99.99 -9.99
2019/07/18 06:12 EDT    0.53   0.68   15  224   17 -99.9  82.8 -999.9 -9.9 -9.999 -99.9 -99.99 -9.99
2019/07/18 06:18 EDT    0.58   0.71   14  228   18 -99.9  82.8 -999.9 -9.9 -9.999 -99.9 -99.99 -9.99
2019/07/18 06:24 EDT    0.64   0.74   15  229   19 -99.9  82.8 -999.9 -9.9 -9.999 -99.9 -99.99 -9.99
2019/07/18 06:30 EDT    0.69   0.81   15  228   17 -99.9  82.8 -999.9 -9.9 -9.999 -99.9 -99.99 -9.99
2019/07/18 06:36 EDT    0.75   0.88   15  229   16 -99.9  82.8 -999.9 -9.9 -9.999 -99.9 -99.99 -9.99
2019/07/18 06:42 EDT    0.80   0.91   14  236   17 -99.9  82.8 -999.9 -9.9 -9.999 -99.9 -99.99 -9.99
2019/07/18 06:48 EDT    0.87   0.97   13  234   17 -99.9  82.8 -999.9 -9.9 -9.999 -99.9 -99.99 -9.99
2019/07/18 06:54 EDT    0.93   1.08   15  236   17 -99.9  82.8 -999.9 -9.9 -9.999 -99.9 -99.99 -9.99
2019/07/18 07:00 EDT    0.99   1.15   14  236   18 -99.9  82.8 -999.9 -9.9 -9.999 -99.9 -99.99 -9.99
2019/07/18 07:06 EDT    1.05   1.21   13  232   18 -99.9  82.8 -999.9 -9.9 -9.999 -99.9 -99.99 -9.99
2019/07/18 07:12 EDT    1.12   1.26   14  233   16 -99.9  82.8 -999.9 -9.9 -9.999 -99.9 -99.99 -9.99
2019/07/18 07:18 EDT    1.18   1.32   14  232   17 -99.9  82.8 -999.9 -9.9 -9.999 -99.9 -99.99 -9.99
2019/07/18 07:24 EDT    1.25   1.42   13  231   17 -99.9  82.8 -999.9 -9.9 -9.999 -99.9 -99.99 -9.99
2019/07/18 07:30 EDT    1.32   1.50   14  234   17 -99.9  82.8 -999.9 -9.9 -9.999 -99.9 -99.99 -9.99
2019/07/18 07:36 EDT    1.38   1.56   14  234   17 -99.9  82.8 -999.9 -9.9 -9.999 -99.9 -99.99 -9.99
2019/07/18 07:42 EDT    1.45   1.58   14  236   17 -99.9  82.8 -999.9 -9.9 -9.999 -99.9 -99.99 -9.99
2019/07/18 07:48 EDT    1.51   1.65   14  238   17 -99.9  82.8 -999.9 -9.9 -9.999 -99.9 -99.99 -9.99
2019/07/18 07:54 EDT    1.58   1.70 -999 -999 -999 -99.9 -99.9 -999.9 -9.9 -9.999 -99.9 -99.99 -9.99
2019/07/18 08:00 EDT    1.64   1.79   14  232   18 -99.9  82.8 -999.9 -9.9 -9.999 -99.9 -99.99 -9.99
2019/07/18 08:06 EDT    1.70   1.86   16  231   19 -99.9  82.8 -999.9 -9.9 -9.999 -99.9 -99.99 -9.99
2019/07/18 08:12 EDT    1.76   1.92   15  232   18 -99.9  82.8 -999.9 -9.9 -9.999 -99.9 -99.99 -9.99
2019/07/18 08:18 EDT    1.82   1.98   16  232   20 -99.9  82.8 -999.9 -9.9 -9.999 -99.9 -99.99 -9.99
2019/07/18 08:24 EDT    1.88   2.07   16  234   19 -99.9  82.8 -999.9 -9.9 -9.999 -99.9 -99.99 -9.99
2019/07/18 08:30 EDT    1.93   2.14   14  232   17 -99.9  82.8 -999.9 -9.9 -9.999 -99.9 -99.99 -9.99
2019/07/18 08:36 EDT    1.98   2.20   14  236   16 -99.9  82.8 -999.9 -9.9 -9.999 -99.9 -99.99 -9.99
2019/07/18 08:42 EDT    2.04   2.25   15  235   18 -99.9  82.8 -999.9 -9.9 -9.999 -99.9 -99.99 -9.99
2019/07/18 08:48 EDT    2.08   2.28   15  232   17 -99.9  82.8 -999.9 -9.9 -9.999 -99.9 -99.99 -9.99
2019/07/18 08:54 EDT    2.13   2.34   16  238   18 -99.9  82.8 -999.9 -9.9 -9.999 -99.9 -99.99 -9.99
2019/07/18 09:00 EDT    2.17   2.38   15  232   18 -99.9  82.8 -999.9 -9.9 -9.999 -99.9 -99.99 -9.99
2019/07/18 09:06 EDT    2.21   2.43   16  236   18 -99.9  82.8 -999.9 -9.9 -9.999 -99.9 -99.99 -9.99
2019/07/18 09:12 EDT    2.25   2.49   16  237   19 -99.9  82.8 -999.9 -9.9 -9.999 -99.9 -99.99 -9.99
2019/07/18 09:18 EDT    2.29   2.53   15  232   19 -99.9  82.8 -999.9 -9.9 -9.999 -99.9 -99.99 -9.99
2019/07/18 09:24 EDT    2.32   2.56   14  234   18 -99.9  82.8 -999.9 -9.9 -9.999 -99.9 -99.99 -9.99
2019/07/18 09:30 EDT    2.35   2.60   14  237   18 -99.9  82.8 -999.9 -9.9 -9.999 -99.9 -99.99 -9.99
2019/07/18 09:36 EDT    2.37   2.63   16  236   18 -99.9  82.8 -999.9 -9.9 -9.999 -99.9 -99.99 -9.99
2019/07/18 09:42 EDT    2.40   2.68   15  236   18 -99.9  82.8 -999.9 -9.9 -9.999 -99.9 -99.99 -9.99
2019/07/18 09:48 EDT    2.42   2.70   13  237   16 -99.9  82.9 -999.9 -9.9 -9.999 -99.9 -99.99 -9.99
2019/07/18 09:54 EDT    2.44   2.73   15  233   17 -99.9  82.9 -999.9 -9.9 -9.999 -99.9 -99.99 -9.99
2019/07/18 10:00 EDT    2.45   2.74   14  234   16 -99.9  82.9 -999.9 -9.9 -9.999 -99.9 -99.99 -9.99
2019/07/18 10:06 EDT    2.47   2.76   14  233   17 -99.9  82.9 -999.9 -9.9 -9.999 -99.9 -99.99 -9.99
2019/07/18 10:12 EDT    2.48   2.77   14  239   17 -99.9  82.9 -999.9 -9.9 -9.999 -99.9 -99.99 -9.99
2019/07/18 10:18 EDT    2.48   2.77   13  242   16 -99.9  82.9 -999.9 -9.9 -9.999 -99.9 -99.99 -9.99
2019/07/18 10:24 EDT    2.49   2.76   13  239   16 -99.9  83.1 -999.9 -9.9 -9.999 -99.9 -99.99 -9.99
2019/07/18 10:30 EDT    2.49   2.76   11  243   14 -99.9  83.1 -999.9 -9.9 -9.999 -99.9 -99.99 -9.99
2019/07/18 10:36 EDT    2.49   2.77   11  241   13 -99.9  83.1 -999.9 -9.9 -9.999 -99.9 -99.99 -9.99
2019/07/18 10:42 EDT    2.48   2.76   10  244   12 -99.9  83.1 -999.9 -9.9 -9.999 -99.9 -99.99 -9.99
2019/07/18 10:48 EDT    2.48   2.78    9  250   12 -99.9  83.1 -999.9 -9.9 -9.999 -99.9 -99.99 -9.99
2019/07/18 10:54 EDT    2.47   2.77   10  248   12 -99.9  83.1 -999.9 -9.9 -9.999 -99.9 -99.99 -9.99
2019/07/18 11:00 EDT    2.45   2.77   10  242   13 -99.9  83.3 -999.9 -9.9 -9.999 -99.9 -99.99 -9.99
2019/07/18 11:06 EDT    2.44   2.77   10  241   13 -99.9  83.3 -999.9 -9.9 -9.999 -99.9 -99.99 -9.99
2019/07/18 11:12 EDT    2.42   2.79   10  240   13 -99.9  83.3 -999.9 -9.9 -9.999 -99.9 -99.99 -9.99
2019/07/18 11:18 EDT    2.40   2.78   11  240   13 -99.9  83.3 -999.9 -9.9 -9.999 -99.9 -99.99 -9.99
2019/07/18 11:24 EDT    2.38   2.76   11  239   13 -99.9  83.5 -999.9 -9.9 -9.999 -99.9 -99.99 -9.99
2019/07/18 11:30 EDT    2.35   2.70   11  248   12 -99.9  83.5 -999.9 -9.9 -9.999 -99.9 -99.99 -9.99
2019/07/18 11:36 EDT    2.32   2.62    9  247   12 -99.9  83.5 -999.9 -9.9 -9.999 -99.9 -99.99 -9.99
2019/07/18 11:42 EDT    2.29   2.59   11  250   12 -99.9  83.5 -999.9 -9.9 -9.999 -99.9 -99.99 -9.99
2019/07/18 11:48 EDT    2.25   2.58   10  251   12 -99.9  83.5 -999.9 -9.9 -9.999 -99.9 -99.99 -9.99
2019/07/18 11:54 EDT    2.22   2.57   10  246   12 -99.9  83.5 -999.9 -9.9 -9.999 -99.9 -99.99 -9.99
2019/07/18 12:00 EDT    2.18   2.54    9  246   11 -99.9  83.5 -999.9 -9.9 -9.999 -99.9 -99.99 -9.99
2019/07/18 12:06 EDT    2.13   2.44    9  238   12 -99.9  83.5 -999.9 -9.9 -9.999 -99.9 -99.99 -9.99
2019/07/18 12:12 EDT    2.09   2.37   10  240   12 -99.9  83.7 -999.9 -9.9 -9.999 -99.9 -99.99 -9.99
2019/07/18 12:18 EDT    2.04   2.30    9  236   11 -99.9  83.7 -999.9 -9.9 -9.999 -99.9 -99.99 -9.99
2019/07/18 12:24 EDT    1.99   2.26    9  236   11 -99.9  83.7 -999.9 -9.9 -9.999 -99.9 -99.99 -9.99
2019/07/18 12:30 EDT    1.94   2.21   10  230   11 -99.9  83.7 -999.9 -9.9 -9.999 -99.9 -99.99 -9.99
2019/07/18 12:36 EDT    1.89   2.15   11  233   12 -99.9  83.8 -999.9 -9.9 -9.999 -99.9 -99.99 -9.99
2019/07/18 12:42 EDT    1.83   2.09    9  230   11 -99.9  83.8 -999.9 -9.9 -9.999 -99.9 -99.99 -9.99
2019/07/18 12:48 EDT    1.78   1.98    9  225   11 -99.9  83.8 -999.9 -9.9 -9.999 -99.9 -99.99 -9.99
2019/07/18 12:54 EDT    1.72   1.95    9  229   11 -99.9  83.8 -999.9 -9.9 -9.999 -99.9 -99.99 -9.99
2019/07/18 13:00 EDT    1.66   1.93    9  220   11 -99.9  83.8 -999.9 -9.9 -9.999 -99.9 -99.99 -9.99
2019/07/18 13:06 EDT    1.60   1.85    8  210   10 -99.9  83.8 -999.9 -9.9 -9.999 -99.9 -99.99 -9.99
2019/07/18 13:12 EDT    1.54   1.79    8  203    9 -99.9  83.8 -999.9 -9.9 -9.999 -99.9 -99.99 -9.99
2019/07/18 13:18 EDT    1.47   1.72    7  194    9 -99.9  83.8 -999.9 -9.9 -9.999 -99.9 -99.99 -9.99
2019/07/18 13:24 EDT    1.41   1.67    6  200    7 -99.9  83.8 -999.9 -9.9 -9.999 -99.9 -99.99 -9.99
2019/07/18 13:30 EDT    1.35   1.60    6  207    7 -99.9  83.8 -999.9 -9.9 -9.999 -99.9 -99.99 -9.99
2019/07/18 13:36 EDT    1.29   1.54    7  228    8 -99.9  83.8 -999.9 -9.9 -9.999 -99.9 -99.99 -9.99
2019/07/18 13:42 EDT    1.22   1.49    7  224    8 -99.9  83.8 -999.9 -9.9 -9.999 -99.9 -99.99 -9.99
2019/07/18 13:48 EDT    1.16   1.44    7  226    9 -99.9  83.8 -999.9 -9.9 -9.999 -99.9 -99.99 -9.99
2019/07/18 13:54 EDT    1.10   1.39    6  233    8 -99.9  83.8 -999.9 -9.9 -9.999 -99.9 -99.99 -9.99
2019/07/18 14:00 EDT    1.04   1.32    6  238    8 -99.9  83.8 -999.9 -9.9 -9.999 -99.9 -99.99 -9.99
2019/07/18 14:06 EDT    0.98   1.27    6  248    8 -99.9  83.8 -999.9 -9.9 -9.999 -99.9 -99.99 -9.99
2019/07/18 14:12 EDT    0.92   1.19    6  249    8 -99.9  83.8 -999.9 -9.9 -9.999 -99.9 -99.99 -9.99
2019/07/18 14:18 EDT    0.86   1.15    6  247    8 -99.9  83.8 -999.9 -9.9 -9.999 -99.9 -99.99 -9.99
2019/07/18 14:24 EDT    0.80   1.10    6  251    7 -99.9  83.8 -999.9 -9.9 -9.999 -99.9 -99.99 -9.99
2019/07/18 14:30 EDT    0.75   1.03    5  252    7 -99.9  83.8 -999.9 -9.9 -9.999 -99.9 -99.99 -9.99
2019/07/18 14:36 EDT    0.70   0.96   10  265   11 -99.9  84.0 -999.9 -9.9 -9.999 -99.9 -99.99 -9.99
2019/07/18 14:42 EDT    0.65   0.91   10  263   11 -99.9  84.0 -999.9 -9.9 -9.999 -99.9 -99.99 -9.99
2019/07/18 14:48 EDT    0.60   0.85   10  256   11 -99.9  84.0 -999.9 -9.9 -9.999 -99.9 -99.99 -9.99
2019/07/18 14:54 EDT    0.55   0.83    9  253   12 -99.9  84.0 -999.9 -9.9 -9.999 -99.9 -99.99 -9.99
2019/07/18 15:00 EDT    0.51   0.78    8  249   11 -99.9  84.0 -999.9 -9.9 -9.999 -99.9 -99.99 -9.99
2019/07/18 15:06 EDT    0.47   0.75    9  257   11 -99.9  84.2 -999.9 -9.9 -9.999 -99.9 -99.99 -9.99
2019/07/18 15:12 EDT    0.43   0.68   10  260   11 -99.9  84.2 -999.9 -9.9 -9.999 -99.9 -99.99 -9.99
2019/07/18 15:18 EDT    0.39   0.66    9  256   11 -99.9  84.2 -999.9 -9.9 -9.999 -99.9 -99.99 -9.99
2019/07/18 15:24 EDT    0.36   0.64    9  249   11 -99.9  84.2 -999.9 -9.9 -9.999 -99.9 -99.99 -9.99
2019/07/18 15:30 EDT    0.33   0.59    8  240   10 -99.9  84.2 -999.9 -9.9 -9.999 -99.9 -99.99 -9.99
2019/07/18 15:36 EDT    0.30   0.58    9  240   11 -99.9  84.2 -999.9 -9.9 -9.999 -99.9 -99.99 -9.99
2019/07/18 15:42 EDT    0.28   0.53   10  240   12 -99.9  84.4 -999.9 -9.9 -9.999 -99.9 -99.99 -9.99
2019/07/18 15:48 EDT    0.26   0.51    8  238   11 -99.9  84.4 -999.9 -9.9 -9.999 -99.9 -99.99 -9.99
2019/07/18 15:54 EDT    0.24   0.49    8  236    9 -99.9  84.4 -999.9 -9.9 -9.999 -99.9 -99.99 -9.99
2019/07/18 16:00 EDT    0.22   0.49    8  237    9 -99.9  84.4 -999.9 -9.9 -9.999 -99.9 -99.99 -9.99
2019/07/18 16:06 EDT    0.21   0.45    9  230   11 -99.9  84.6 -999.9 -9.9 -9.999 -99.9 -99.99 -9.99
2019/07/18 16:12 EDT    0.20   0.44    9  234   10 -99.9  84.4 -999.9 -9.9 -9.999 -99.9 -99.99 -9.99
2019/07/18 16:18 EDT    0.19   0.43    9  237   10 -99.9  84.6 -999.9 -9.9 -9.999 -99.9 -99.99 -9.99
2019/07/18 16:24 EDT    0.19   0.41    9  241   11 -99.9  84.6 -999.9 -9.9 -9.999 -99.9 -99.99 -9.99
2019/07/18 16:30 EDT    0.19   0.40    8  248   10 -99.9  84.6 -999.9 -9.9 -9.999 -99.9 -99.99 -9.99
2019/07/18 16:36 EDT    0.19   0.40    9  248   11 -99.9  84.6 -999.9 -9.9 -9.999 -99.9 -99.99 -9.99
2019/07/18 16:42 EDT    0.19   0.40   11  253   12 -99.9  84.6 -999.9 -9.9 -9.999 -99.9 -99.99 -9.99
2019/07/18 16:48 EDT    0.20   0.42 -999 -999 -999 -99.9 -99.9 -999.9 -9.9 -9.999 -99.9 -99.99 -9.99
2019/07/18 16:54 EDT    0.21   0.42   10  255   13 -99.9  84.7 -999.9 -9.9 -9.999 -99.9 -99.99 -9.99
2019/07/18 17:00 EDT    0.23   0.42   11  255   14 -99.9  84.7 -999.9 -9.9 -9.999 -99.9 -99.99 -9.99
2019/07/18 17:06 EDT    0.24   0.44   14  268   16 -99.9  84.7 -999.9 -9.9 -9.999 -99.9 -99.99 -9.99
2019/07/18 17:12 EDT    0.26   0.39   11  270   15 -99.9  84.7 -999.9 -9.9 -9.999 -99.9 -99.99 -9.99
2019/07/18 17:18 EDT    0.29   0.38   11  263   12 -99.9  84.7 -999.9 -9.9 -9.999 -99.9 -99.99 -9.99
2019/07/18 17:24 EDT    0.31   0.41   11  263   13 -99.9  84.7 -999.9 -9.9 -9.999 -99.9 -99.99 -9.99
2019/07/18 17:30 EDT    0.34   0.49   11  262   13 -99.9  84.7 -999.9 -9.9 -9.999 -99.9 -99.99 -9.99
2019/07/18 17:36 EDT    0.38   0.47   10  260   13 -99.9  84.7 -999.9 -9.9 -9.999 -99.9 -99.99 -9.99
2019/07/18 17:42 EDT    0.41   0.51    7  259   10 -99.9  84.7 -999.9 -9.9 -9.999 -99.9 -99.99 -9.99
2019/07/18 17:48 EDT    0.45   0.58   10  251   13 -99.9  84.7 -999.9 -9.9 -9.999 -99.9 -99.99 -9.99
2019/07/18 17:54 EDT    0.49   0.68   12  253   18 -99.9  84.7 -999.9 -9.9 -9.999 -99.9 -99.99 -9.99
2019/07/18 18:00 EDT    0.53   0.74   10  250   13 -99.9  84.7 -999.9 -9.9 -9.999 -99.9 -99.99 -9.99
2019/07/18 18:06 EDT    0.58   0.69   10  240   12 -99.9  84.7 -999.9 -9.9 -9.999 -99.9 -99.99 -9.99
2019/07/18 18:12 EDT    0.63   0.72    8  231   11 -99.9  84.7 -999.9 -9.9 -9.999 -99.9 -99.99 -9.99
2019/07/18 18:18 EDT    0.68   0.78    6  222    9 -99.9  84.9 -999.9 -9.9 -9.999 -99.9 -99.99 -9.99
2019/07/18 18:24 EDT    0.74   0.88    6  230    7 -99.9  85.3 -999.9 -9.9 -9.999 -99.9 -99.99 -9.99
2019/07/18 18:30 EDT    0.80   0.92    6  242    8 -99.9  85.1 -999.9 -9.9 -9.999 -99.9 -99.99 -9.99
2019/07/18 18:36 EDT    0.86   0.97    7  236    9 -99.9  85.1 -999.9 -9.9 -9.999 -99.9 -99.99 -9.99
2019/07/18 18:42 EDT    0.92   1.00    7  243    9 -99.9  84.7 -999.9 -9.9 -9.999 -99.9 -99.99 -9.99
2019/07/18 18:48 EDT    0.98   1.09    6  240    9 -99.9  84.6 -999.9 -9.9 -9.999 -99.9 -99.99 -9.99
2019/07/18 18:54 EDT    1.05   1.19    7  234    8 -99.9  84.6 -999.9 -9.9 -9.999 -99.9 -99.99 -9.99
2019/07/18 19:00 EDT    1.12   1.26    6  223    8 -99.9  84.2 -999.9 -9.9 -9.999 -99.9 -99.99 -9.99
2019/07/18 19:06 EDT    1.19   1.33    6  217    8 -99.9  83.7 -999.9 -9.9 -9.999 -99.9 -99.99 -9.99
2019/07/18 19:12 EDT    1.26   1.40    5  208    7 -99.9  84.0 -999.9 -9.9 -9.999 -99.9 -99.99 -9.99
2019/07/18 19:18 EDT    1.33   1.47    6  222    7 -99.9  84.2 -999.9 -9.9 -9.999 -99.9 -99.99 -9.99
2019/07/18 19:24 EDT    1.40   1.55    7  227    8 -99.9  84.2 -999.9 -9.9 -9.999 -99.9 -99.99 -9.99
2019/07/18 19:30 EDT    1.47   1.61    7  226    8 -99.9  84.7 -999.9 -9.9 -9.999 -99.9 -99.99 -9.99
2019/07/18 19:36 EDT    1.55   1.67    7  241    9 -99.9  84.9 -999.9 -9.9 -9.999 -99.9 -99.99 -9.99
2019/07/18 19:42 EDT    1.62   1.78    6  255    8 -99.9  85.3 -999.9 -9.9 -9.999 -99.9 -99.99 -9.99
2019/07/18 19:48 EDT    1.69   1.89    7  262    8 -99.9  85.5 -999.9 -9.9 -9.999 -99.9 -99.99 -9.99
2019/07/18 19:54 EDT    1.77   1.98    6  260    8 -99.9  84.9 -999.9 -9.9 -9.999 -99.9 -99.99 -9.99
2019/07/18 20:00 EDT    1.84   2.00    5  241    6 -99.9  82.9 -999.9 -9.9 -9.999 -99.9 -99.99 -9.99
2019/07/18 20:06 EDT    1.91   2.09 -999 -999 -999 -99.9 -99.9 -999.9 -9.9 -9.999 -99.9 -99.99 -9.99
2019/07/18 20:12 EDT    1.98   2.14    8  186   10 -99.9  81.0 -999.9 -9.9 -9.999 -99.9 -99.99 -9.99
2019/07/18 20:18 EDT    2.05   2.23   11  188   13 -99.9  80.4 -999.9 -9.9 -9.999 -99.9 -99.99 -9.99
2019/07/18 20:24 EDT    2.12   2.29   11  189   14 -99.9  79.9 -999.9 -9.9 -9.999 -99.9 -99.99 -9.99
2019/07/18 20:30 EDT    2.18   2.33   10  196   11 -99.9  81.1 -999.9 -9.9 -9.999 -99.9 -99.99 -9.99
2019/07/18 20:36 EDT    2.25   2.36   11  209   13 -99.9  82.8 -999.9 -9.9 -9.999 -99.9 -99.99 -9.99
2019/07/18 20:42 EDT    2.31   2.39   11  213   14 -99.9  83.8 -999.9 -9.9 -9.999 -99.9 -99.99 -9.99
2019/07/18 20:48 EDT    2.37   2.44   11  216   14 -99.9  84.4 -999.9 -9.9 -9.999 -99.9 -99.99 -9.99
2019/07/18 20:54 EDT    2.43   2.49   10  214   13 -99.9  84.9 -999.9 -9.9 -9.999 -99.9 -99.99 -9.99
2019/07/18 21:00 EDT    2.48   2.58    8  212   11 -99.9  85.1 -999.9 -9.9 -9.999 -99.9 -99.99 -9.99
2019/07/18 21:06 EDT    2.53   2.67    8  208   10 -99.9  85.3 -999.9 -9.9 -9.999 -99.9 -99.99 -9.99
2019/07/18 21:12 EDT    2.58   2.72    7  212    9 -99.9  85.3 -999.9 -9.9 -9.999 -99.9 -99.99 -9.99
2019/07/18 21:18 EDT    2.63   2.77    7  211    9 -99.9  85.5 -999.9 -9.9 -9.999 -99.9 -99.99 -9.99
2019/07/18 21:24 EDT    2.67   2.82    8  195    9 -99.9  85.5 -999.9 -9.9 -9.999 -99.9 -99.99 -9.99
2019/07/18 21:30 EDT    2.71   2.88    9  203   10 -99.9  85.5 -999.9 -9.9 -9.999 -99.9 -99.99 -9.99
2019/07/18 21:36 EDT    2.75   2.90    8  203   11 -99.9  85.5 -999.9 -9.9 -9.999 -99.9 -99.99 -9.99
2019/07/18 21:42 EDT    2.79   2.97    7  203    9 -99.9  85.3 -999.9 -9.9 -9.999 -99.9 -99.99 -9.99
2019/07/18 21:48 EDT    2.82   2.99    6  209    8 -99.9  85.3 -999.9 -9.9 -9.999 -99.9 -99.99 -9.99
2019/07/18 21:54 EDT    2.84   3.06    8  214   10 -99.9  85.3 -999.9 -9.9 -9.999 -99.9 -99.99 -9.99
2019/07/18 22:00 EDT    2.87   3.18   12  224   15 -99.9  85.5 -999.9 -9.9 -9.999 -99.9 -99.99 -9.99
2019/07/18 22:06 EDT    2.89   3.27   12  230   17 -99.9  85.3 -999.9 -9.9 -9.999 -99.9 -99.99 -9.99
2019/07/18 22:12 EDT    2.91   3.32   12  237   15 -99.9  85.5 -999.9 -9.9 -9.999 -99.9 -99.99 -9.99
2019/07/18 22:18 EDT    2.92   3.29   15  247   19 -99.9  85.5 -999.9 -9.9 -9.999 -99.9 -99.99 -9.99
2019/07/18 22:24 EDT    2.94   3.28   17  251   21 -99.9  85.5 -999.9 -9.9 -9.999 -99.9 -99.99 -9.99
2019/07/18 22:30 EDT    2.94   3.36   21  277   32 -99.9  85.5 -999.9 -9.9 -9.999 -99.9 -99.99 -9.99
2019/07/18 22:36 EDT    2.95   3.45   26  323   32 -99.9  85.3 -999.9 -9.9 -9.999 -99.9 -99.99 -9.99
2019/07/18 22:42 EDT    2.95   3.50   20  328   28 -99.9  85.3 -999.9 -9.9 -9.999 -99.9 -99.99 -9.99
2019/07/18 22:48 EDT    2.95   3.49   16  340   24 -99.9  85.3 -999.9 -9.9 -9.999 -99.9 -99.99 -9.99
2019/07/18 22:54 EDT    2.95   3.42   17  339   19 -99.9  85.1 -999.9 -9.9 -9.999 -99.9 -99.99 -9.99
2019/07/18 23:00 EDT    2.94   3.33   13  342   18 -99.9  84.9 -999.9 -9.9 -9.999 -99.9 -99.99 -9.99
2019/07/18 23:06 EDT    2.93   3.23   12  341   14 -99.9  84.9 -999.9 -9.9 -9.999 -99.9 -99.99 -9.99
2019/07/18 23:12 EDT    2.92   3.19   11  338   15 -99.9  84.7 -999.9 -9.9 -9.999 -99.9 -99.99 -9.99
2019/07/18 23:18 EDT    2.90   3.19   14  336   16 -99.9  84.7 -999.9 -9.9 -9.999 -99.9 -99.99 -9.99
2019/07/18 23:24 EDT    2.89   3.16   13  322   15 -99.9  84.7 -999.9 -9.9 -9.999 -99.9 -99.99 -9.99
2019/07/18 23:30 EDT    2.86   3.18   10  303   13 -99.9  84.7 -999.9 -9.9 -9.999 -99.9 -99.99 -9.99
2019/07/18 23:36 EDT    2.84   3.15    8  308   11 -99.9  84.7 -999.9 -9.9 -9.999 -99.9 -99.99 -9.99
2019/07/18 23:42 EDT    2.81   3.11    6  277    8 -99.9  84.7 -999.9 -9.9 -9.999 -99.9 -99.99 -9.99
2019/07/18 23:48 EDT    2.78   3.12    7  267    9 -99.9  84.7 -999.9 -9.9 -9.999 -99.9 -99.99 -9.99
2019/07/18 23:54 EDT    2.75   3.10    6  279    7 -99.9  84.7 -999.9 -9.9 -9.999 -99.9 -99.99 -9.99
2019/07/19 00:00 EDT    2.71   2.99    6  267    7 -99.9  84.4 -999.9 -9.9 -9.999 -99.9 -99.99 -9.99
2019/07/19 00:06 EDT    2.67   2.92    6  259    8 -99.9  84.4 -999.9 -9.9 -9.999 -99.9 -99.99 -9.99
2019/07/19 00:12 EDT    2.63   2.83    4  269    6 -99.9  84.4 -999.9 -9.9 -9.999 -99.9 -99.99 -9.99
2019/07/19 00:18 EDT    2.59   2.78    6  279    7 -99.9  84.4 -999.9 -9.9 -9.999 -99.9 -99.99 -9.99
2019/07/19 00:24 EDT    2.54   2.75    6  273    7 -99.9  84.4 -999.9 -9.9 -9.999 -99.9 -99.99 -9.99
2019/07/19 00:30 EDT    2.49   2.70    7  267    7 -99.9  84.4 -999.9 -9.9 -9.999 -99.9 -99.99 -9.99
2019/07/19 00:36 EDT    2.44   2.63    7  257    8 -99.9  84.2 -999.9 -9.9 -9.999 -99.9 -99.99 -9.99
2019/07/19 00:42 EDT    2.39   2.54    9  238   10 -99.9  84.0 -999.9 -9.9 -9.999 -99.9 -99.99 -9.99
2019/07/19 00:48 EDT    2.33   2.52    9  235   10 -99.9  84.0 -999.9 -9.9 -9.999 -99.9 -99.99 -9.99
2019/07/19 00:54 EDT    2.27   2.47    7  231   10 -99.9  84.0 -999.9 -9.9 -9.999 -99.9 -99.99 -9.99
2019/07/19 01:00 EDT    2.21   2.41    5  227    8 -99.9  84.0 -999.9 -9.9 -9.999 -99.9 -99.99 -9.99
2019/07/19 01:06 EDT    2.15   2.37    6  228    7 -99.9  83.8 -999.9 -9.9 -9.999 -99.9 -99.99 -9.99
2019/07/19 01:12 EDT    2.08   2.31    7  226    8 -99.9  83.7 -999.9 -9.9 -9.999 -99.9 -99.99 -9.99
2019/07/19 01:18 EDT    2.02   2.25    7  215    8 -99.9  83.7 -999.9 -9.9 -9.999 -99.9 -99.99 -9.99
2019/07/19 01:24 EDT    1.95   2.18    5  213    8 -99.9  83.5 -999.9 -9.9 -9.999 -99.9 -99.99 -9.99
2019/07/19 01:30 EDT    1.88   2.08    7  225   10 -99.9  83.3 -999.9 -9.9 -9.999 -99.9 -99.99 -9.99
2019/07/19 01:36 EDT    1.81   2.00    8  238   10 -99.9  83.3 -999.9 -9.9 -9.999 -99.9 -99.99 -9.99
2019/07/19 01:42 EDT    1.74   1.93   10  237   11 -99.9  83.3 -999.9 -9.9 -9.999 -99.9 -99.99 -9.99
2019/07/19 01:48 EDT    1.67   1.87   10  237   11 -99.9  83.1 -999.9 -9.9 -9.999 -99.9 -99.99 -9.99
2019/07/19 01:54 EDT    1.60   1.80   11  239   12 -99.9  83.1 -999.9 -9.9 -9.999 -99.9 -99.99 -9.99
2019/07/19 02:00 EDT    1.53   1.72   12  239   14 -99.9  83.1 -999.9 -9.9 -9.999 -99.9 -99.99 -9.99
2019/07/19 02:06 EDT    1.46 -99.99 -999 -999 -999 -99.9 -99.9 -999.9 -9.9 -9.999 -99.9 -99.99 -9.99
2019/07/19 02:12 EDT    1.39 -99.99 -999 -999 -999 -99.9 -99.9 -999.9 -9.9 -9.999 -99.9 -99.99 -9.99

Revised: 08/08/2018
NOAA / National Ocean Service
Web site owner: Center for Operational Oceanographic Products and Services